<?xml version="1.0" encoding="UTF-8" standalone="no" ?>
<gpx xmlns="http://www.topografix.com/GPX/1/1" xmlns:xsi="http://www.w3.org/2001/XMLSchema-instance" xsi:schemaLocation="http://www.topografix.com/GPX/1/1 http://www.topografix.com/GPX/1/1/gpx.xsd" version="1.1" creator="VisuGPX - https://www.visugpx.com">
  <metadata>
    <name>66acFQScce</name>
    <desc><![CDATA[

]]></desc>
  </metadata>
  <trk>
    <name><![CDATA[66acFQScce_1]]></name>
    <trkseg>
      <trkpt lat="45.82701" lon="3.33239">
        <ele>320</ele>
      </trkpt>
      <trkpt lat="45.82782" lon="3.33197">
        <ele>322.23831176758</ele>
        <time>2020-05-23T18:56:06.260Z</time>
      </trkpt>
      <trkpt lat="45.82821" lon="3.33181">
        <ele>323.18026733398</ele>
        <time>2020-05-23T18:56:06.346Z</time>
      </trkpt>
      <trkpt lat="45.82851" lon="3.33167">
        <ele>323.22106933594</ele>
        <time>2020-05-23T18:56:06.444Z</time>
      </trkpt>
      <trkpt lat="45.82878" lon="3.33157">
        <ele>323.60925292969</ele>
        <time>2020-05-23T18:56:06.552Z</time>
      </trkpt>
      <trkpt lat="45.82891" lon="3.33154">
        <ele>324.10290527344</ele>
        <time>2020-05-23T18:56:06.665Z</time>
      </trkpt>
      <trkpt lat="45.82899" lon="3.33152">
        <ele>323.7</ele>
      </trkpt>
      <trkpt lat="45.82903" lon="3.33178">
        <ele>324.67880249023</ele>
        <time>2020-05-23T18:56:06.785Z</time>
      </trkpt>
      <trkpt lat="45.82912" lon="3.33261">
        <ele>323.86761474609</ele>
        <time>2020-05-23T18:56:06.927Z</time>
      </trkpt>
      <trkpt lat="45.82916" lon="3.33283">
        <ele>323.74761962891</ele>
        <time>2020-05-23T18:56:07.074Z</time>
      </trkpt>
      <trkpt lat="45.82928" lon="3.33323">
        <ele>323.69964599609</ele>
        <time>2020-05-23T18:56:07.232Z</time>
      </trkpt>
      <trkpt lat="45.82952" lon="3.33389">
        <ele>323.77163696289</ele>
        <time>2020-05-23T18:56:07.409Z</time>
      </trkpt>
      <trkpt lat="45.82979" lon="3.33477">
        <ele>322.57360839844</ele>
        <time>2020-05-23T18:56:07.611Z</time>
      </trkpt>
      <trkpt lat="45.82987" lon="3.33493">
        <ele>322.28564453125</ele>
        <time>2020-05-23T18:56:07.818Z</time>
      </trkpt>
      <trkpt lat="45.82998" lon="3.33501">
        <ele>322.39364624023</ele>
        <time>2020-05-23T18:56:08.029Z</time>
      </trkpt>
      <trkpt lat="45.83035" lon="3.33513">
        <ele>323.29348754883</ele>
        <time>2020-05-23T18:56:08.254Z</time>
      </trkpt>
      <trkpt lat="45.83045" lon="3.3352">
        <ele>323.54733276367</ele>
        <time>2020-05-23T18:56:08.483Z</time>
      </trkpt>
      <trkpt lat="45.83053" lon="3.33527">
        <ele>323.75128173828</ele>
        <time>2020-05-23T18:56:08.716Z</time>
      </trkpt>
      <trkpt lat="45.83077" lon="3.33553">
        <ele>324.81790161133</ele>
        <time>2020-05-23T18:56:08.960Z</time>
      </trkpt>
      <trkpt lat="45.83101" lon="3.3357">
        <ele>326.0537109375</ele>
        <time>2020-05-23T18:56:09.213Z</time>
      </trkpt>
      <trkpt lat="45.83136" lon="3.33593">
        <ele>327.89385986328</ele>
        <time>2020-05-23T18:56:09.480Z</time>
      </trkpt>
      <trkpt lat="45.83187" lon="3.33622">
        <ele>331.46279907227</ele>
        <time>2020-05-23T18:56:09.767Z</time>
      </trkpt>
      <trkpt lat="45.8321" lon="3.3364">
        <ele>333.11853027344</ele>
        <time>2020-05-23T18:56:10.064Z</time>
      </trkpt>
      <trkpt lat="45.83232" lon="3.33663">
        <ele>334.81930541992</ele>
        <time>2020-05-23T18:56:10.371Z</time>
      </trkpt>
      <trkpt lat="45.83254" lon="3.33679">
        <ele>336.6669921875</ele>
        <time>2020-05-23T18:56:10.687Z</time>
      </trkpt>
      <trkpt lat="45.83272" lon="3.33687">
        <ele>338.17874145508</ele>
        <time>2020-05-23T18:56:11.010Z</time>
      </trkpt>
      <trkpt lat="45.83291" lon="3.33694">
        <ele>339.77447509766</ele>
        <time>2020-05-23T18:56:11.340Z</time>
      </trkpt>
      <trkpt lat="45.8331" lon="3.33703">
        <ele>341.21154785156</ele>
        <time>2020-05-23T18:56:11.677Z</time>
      </trkpt>
      <trkpt lat="45.83337" lon="3.33722">
        <ele>342.50732421875</ele>
        <time>2020-05-23T18:56:12.025Z</time>
      </trkpt>
      <trkpt lat="45.83392" lon="3.33758">
        <ele>345.43499755859</ele>
        <time>2020-05-23T18:56:12.395Z</time>
      </trkpt>
      <trkpt lat="45.83421" lon="3.33775">
        <ele>347.57284545898</ele>
        <time>2020-05-23T18:56:12.776Z</time>
      </trkpt>
      <trkpt lat="45.8346" lon="3.33794">
        <ele>350.83630371094</ele>
        <time>2020-05-23T18:56:13.172Z</time>
      </trkpt>
      <trkpt lat="45.83483" lon="3.33799">
        <ele>351.96929931641</ele>
        <time>2020-05-23T18:56:13.577Z</time>
      </trkpt>
      <trkpt lat="45.83503" lon="3.33797">
        <ele>352.16125488281</ele>
        <time>2020-05-23T18:56:13.989Z</time>
      </trkpt>
      <trkpt lat="45.83539" lon="3.33789">
        <ele>353.40130615234</ele>
        <time>2020-05-23T18:56:14.414Z</time>
      </trkpt>
      <trkpt lat="45.83561" lon="3.33788">
        <ele>354.12878417969</ele>
        <time>2020-05-23T18:56:14.847Z</time>
      </trkpt>
      <trkpt lat="45.83603" lon="3.33794">
        <ele>354.72076416016</ele>
        <time>2020-05-23T18:56:15.296Z</time>
      </trkpt>
      <trkpt lat="45.83615" lon="3.33801">
        <ele>354.88873291016</ele>
        <time>2020-05-23T18:56:15.749Z</time>
      </trkpt>
      <trkpt lat="45.83624" lon="3.33815">
        <ele>355.22467041016</ele>
        <time>2020-05-23T18:56:16.207Z</time>
      </trkpt>
      <trkpt lat="45.83627" lon="3.33835">
        <ele>355.70458984375</ele>
        <time>2020-05-23T18:56:16.670Z</time>
      </trkpt>
      <trkpt lat="45.83624" lon="3.33896">
        <ele>357.39306640625</ele>
        <time>2020-05-23T18:56:17.149Z</time>
      </trkpt>
      <trkpt lat="45.83626" lon="3.33967">
        <ele>360.43264770508</ele>
        <time>2020-05-23T18:56:17.646Z</time>
      </trkpt>
      <trkpt lat="45.8363" lon="3.34023">
        <ele>363.00033569336</ele>
        <time>2020-05-23T18:56:18.157Z</time>
      </trkpt>
      <trkpt lat="45.83637" lon="3.34059">
        <ele>364.03216552734</ele>
        <time>2020-05-23T18:56:18.678Z</time>
      </trkpt>
      <trkpt lat="45.83653" lon="3.34114">
        <ele>366.13537597656</ele>
        <time>2020-05-23T18:56:19.214Z</time>
      </trkpt>
      <trkpt lat="45.83661" lon="3.3415">
        <ele>368.05505371094</ele>
        <time>2020-05-23T18:56:19.760Z</time>
      </trkpt>
      <trkpt lat="45.83665" lon="3.34187">
        <ele>369.47317504883</ele>
        <time>2020-05-23T18:56:20.315Z</time>
      </trkpt>
      <trkpt lat="45.83666" lon="3.34252">
        <ele>370.59387207031</ele>
        <time>2020-05-23T18:56:20.887Z</time>
      </trkpt>
      <trkpt lat="45.83663" lon="3.34324">
        <ele>372.14294433594</ele>
        <time>2020-05-23T18:56:21.477Z</time>
      </trkpt>
      <trkpt lat="45.83657" lon="3.34395">
        <ele>372.07382202148</ele>
        <time>2020-05-23T18:56:22.085Z</time>
      </trkpt>
      <trkpt lat="45.83654" lon="3.34446">
        <ele>370.44787597656</ele>
        <time>2020-05-23T18:56:22.706Z</time>
      </trkpt>
      <trkpt lat="45.83645" lon="3.34458">
        <ele>368.1</ele>
      </trkpt>
      <trkpt lat="45.83633" lon="3.34489">
        <ele>366.3</ele>
      </trkpt>
      <trkpt lat="45.83633" lon="3.3453">
        <ele>364.4</ele>
      </trkpt>
      <trkpt lat="45.83631" lon="3.34563">
        <ele>362.7</ele>
      </trkpt>
      <trkpt lat="45.83628" lon="3.34583">
        <ele>361.6</ele>
      </trkpt>
      <trkpt lat="45.83617" lon="3.34709">
        <ele>357.2</ele>
      </trkpt>
      <trkpt lat="45.836" lon="3.34827">
        <ele>356.43954467773</ele>
        <time>2020-05-23T18:56:26.017Z</time>
      </trkpt>
      <trkpt lat="45.83592" lon="3.34892">
        <ele>352.94702148438</ele>
        <time>2020-05-23T18:56:26.755Z</time>
      </trkpt>
      <trkpt lat="45.83581" lon="3.34942">
        <ele>349.28973388672</ele>
        <time>2020-05-23T18:56:27.506Z</time>
      </trkpt>
      <trkpt lat="45.83529" lon="3.35132">
        <ele>340.89437866211</ele>
        <time>2020-05-23T18:56:28.309Z</time>
      </trkpt>
      <trkpt lat="45.83493" lon="3.35275">
        <ele>339.75588989258</ele>
        <time>2020-05-23T18:56:29.150Z</time>
      </trkpt>
      <trkpt lat="45.83452" lon="3.35428">
        <ele>339.23492431641</ele>
        <time>2020-05-23T18:56:30.033Z</time>
      </trkpt>
      <trkpt lat="45.8344" lon="3.35483">
        <ele>340.70053100586</ele>
        <time>2020-05-23T18:56:30.931Z</time>
      </trkpt>
      <trkpt lat="45.83393" lon="3.35667">
        <ele>340.29232788086</ele>
        <time>2020-05-23T18:56:31.879Z</time>
      </trkpt>
      <trkpt lat="45.83382" lon="3.35703">
        <ele>339.93154907227</ele>
        <time>2020-05-23T18:56:32.837Z</time>
      </trkpt>
      <trkpt lat="45.83365" lon="3.35724">
        <ele>337.8</ele>
      </trkpt>
      <trkpt lat="45.83354" lon="3.35759">
        <ele>337.3</ele>
      </trkpt>
      <trkpt lat="45.83348" lon="3.35804">
        <ele>337.4</ele>
      </trkpt>
      <trkpt lat="45.83346" lon="3.35834">
        <ele>337.6</ele>
      </trkpt>
      <trkpt lat="45.83336" lon="3.35892">
        <ele>338.09451293945</ele>
        <time>2020-05-23T18:56:36.794Z</time>
      </trkpt>
      <trkpt lat="45.83329" lon="3.35925">
        <ele>337.84255981445</ele>
        <time>2020-05-23T18:56:37.812Z</time>
      </trkpt>
      <trkpt lat="45.83315" lon="3.35973">
        <ele>336.83462524414</ele>
        <time>2020-05-23T18:56:38.843Z</time>
      </trkpt>
      <trkpt lat="45.83304" lon="3.36005">
        <ele>336.05474853516</ele>
        <time>2020-05-23T18:56:39.883Z</time>
      </trkpt>
      <trkpt lat="45.83281" lon="3.36054">
        <ele>335.59069824219</ele>
        <time>2020-05-23T18:56:40.938Z</time>
      </trkpt>
      <trkpt lat="45.83267" lon="3.36088">
        <ele>335.49472045898</ele>
        <time>2020-05-23T18:56:42.003Z</time>
      </trkpt>
      <trkpt lat="45.83256" lon="3.36121">
        <ele>335.49472045898</ele>
        <time>2020-05-23T18:56:43.078Z</time>
      </trkpt>
      <trkpt lat="45.83239" lon="3.36186">
        <ele>335.60308837891</ele>
        <time>2020-05-23T18:56:44.170Z</time>
      </trkpt>
      <trkpt lat="45.83234" lon="3.36221">
        <ele>335.76159667969</ele>
        <time>2020-05-23T18:56:45.272Z</time>
      </trkpt>
      <trkpt lat="45.83228" lon="3.36307">
        <ele>335.69580078125</ele>
        <time>2020-05-23T18:56:46.396Z</time>
      </trkpt>
      <trkpt lat="45.83226" lon="3.36326">
        <ele>335.39584350586</ele>
        <time>2020-05-23T18:56:47.524Z</time>
      </trkpt>
      <trkpt lat="45.8322" lon="3.36364">
        <ele>334.80474853516</ele>
        <time>2020-05-23T18:56:48.662Z</time>
      </trkpt>
      <trkpt lat="45.8321" lon="3.36403">
        <ele>334.33682250977</ele>
        <time>2020-05-23T18:56:49.811Z</time>
      </trkpt>
      <trkpt lat="45.83187" lon="3.36483">
        <ele>332.75399780273</ele>
        <time>2020-05-23T18:56:50.982Z</time>
      </trkpt>
      <trkpt lat="45.83159" lon="3.36553">
        <ele>332.24118041992</ele>
        <time>2020-05-23T18:56:52.173Z</time>
      </trkpt>
      <trkpt lat="45.83149" lon="3.36585">
        <ele>332.12121582031</ele>
        <time>2020-05-23T18:56:53.373Z</time>
      </trkpt>
      <trkpt lat="45.83143" lon="3.36616">
        <ele>332.09844970703</ele>
        <time>2020-05-23T18:56:54.581Z</time>
      </trkpt>
      <trkpt lat="45.83134" lon="3.36713">
        <ele>331.88247680664</ele>
        <time>2020-05-23T18:56:55.814Z</time>
      </trkpt>
      <trkpt lat="45.8313" lon="3.36728">
        <ele>331.78649902344</ele>
        <time>2020-05-23T18:56:57.051Z</time>
      </trkpt>
      <trkpt lat="45.83123" lon="3.36741">
        <ele>331.61853027344</ele>
        <time>2020-05-23T18:56:58.293Z</time>
      </trkpt>
      <trkpt lat="45.83115" lon="3.36751">
        <ele>331.42654418945</ele>
        <time>2020-05-23T18:56:59.538Z</time>
      </trkpt>
      <trkpt lat="45.83085" lon="3.3678">
        <ele>330.52026367188</ele>
        <time>2020-05-23T18:57:00.797Z</time>
      </trkpt>
      <trkpt lat="45.83058" lon="3.36811">
        <ele>331.08731079102</ele>
        <time>2020-05-23T18:57:02.068Z</time>
      </trkpt>
      <trkpt lat="45.83044" lon="3.36836">
        <ele>331.57803344727</ele>
        <time>2020-05-23T18:57:03.347Z</time>
      </trkpt>
      <trkpt lat="45.83036" lon="3.36865">
        <ele>332.14959716797</ele>
        <time>2020-05-23T18:57:04.634Z</time>
      </trkpt>
      <trkpt lat="45.83024" lon="3.36949">
        <ele>334.50659179688</ele>
        <time>2020-05-23T18:57:05.943Z</time>
      </trkpt>
      <trkpt lat="45.83014" lon="3.37007">
        <ele>335.82583618164</ele>
        <time>2020-05-23T18:57:07.267Z</time>
      </trkpt>
      <trkpt lat="45.83009" lon="3.37026">
        <ele>335.35220336914</ele>
        <time>2020-05-23T18:57:08.596Z</time>
      </trkpt>
      <trkpt lat="45.82985" lon="3.371">
        <ele>334.205078125</ele>
        <time>2020-05-23T18:57:09.946Z</time>
      </trkpt>
      <trkpt lat="45.82978" lon="3.37134">
        <ele>334.93695068359</ele>
        <time>2020-05-23T18:57:11.305Z</time>
      </trkpt>
      <trkpt lat="45.82974" lon="3.3716">
        <ele>335.51284790039</ele>
        <time>2020-05-23T18:57:12.671Z</time>
      </trkpt>
      <trkpt lat="45.82974" lon="3.37179">
        <ele>335.96878051758</ele>
        <time>2020-05-23T18:57:14.042Z</time>
      </trkpt>
      <trkpt lat="45.82978" lon="3.37275">
        <ele>336.38995361328</ele>
        <time>2020-05-23T18:57:15.437Z</time>
      </trkpt>
      <trkpt lat="45.82978" lon="3.37288">
        <ele>336.70190429688</ele>
        <time>2020-05-23T18:57:16.836Z</time>
      </trkpt>
      <trkpt lat="45.82983" lon="3.37382">
        <ele>338.68887329102</ele>
        <time>2020-05-23T18:57:18.259Z</time>
      </trkpt>
      <trkpt lat="45.82988" lon="3.37425">
        <ele>339.66070556641</ele>
        <time>2020-05-23T18:57:19.693Z</time>
      </trkpt>
      <trkpt lat="45.82988" lon="3.37449">
        <ele>340.26016235352</ele>
        <time>2020-05-23T18:57:21.133Z</time>
      </trkpt>
      <trkpt lat="45.82982" lon="3.37483">
        <ele>341.6279296875</ele>
        <time>2020-05-23T18:57:22.582Z</time>
      </trkpt>
      <trkpt lat="45.82964" lon="3.37549">
        <ele>343.92416381836</ele>
        <time>2020-05-23T18:57:24.049Z</time>
      </trkpt>
      <trkpt lat="45.82953" lon="3.37596">
        <ele>345.18395996094</ele>
        <time>2020-05-23T18:57:25.528Z</time>
      </trkpt>
      <trkpt lat="45.82924" lon="3.37694">
        <ele>347.30517578125</ele>
        <time>2020-05-23T18:57:27.034Z</time>
      </trkpt>
      <trkpt lat="45.82905" lon="3.37743">
        <ele>349.1</ele>
      </trkpt>
      <trkpt lat="45.82899" lon="3.37762">
        <ele>349.6</ele>
      </trkpt>
      <trkpt lat="45.82894" lon="3.37799">
        <ele>349.35064697266</ele>
        <time>2020-05-23T18:57:30.093Z</time>
      </trkpt>
      <trkpt lat="45.82889" lon="3.37848">
        <ele>349.99826049805</ele>
        <time>2020-05-23T18:57:31.641Z</time>
      </trkpt>
      <trkpt lat="45.82883" lon="3.37913">
        <ele>353.9</ele>
      </trkpt>
      <trkpt lat="45.8288" lon="3.38">
        <ele>357.9</ele>
      </trkpt>
      <trkpt lat="45.8287" lon="3.38068">
        <ele>362.2</ele>
      </trkpt>
      <trkpt lat="45.82895" lon="3.38093">
        <ele>362.6</ele>
      </trkpt>
      <trkpt lat="45.82894" lon="3.38104">
        <ele>362.13348388672</ele>
        <time>2020-05-23T18:57:38.007Z</time>
      </trkpt>
      <trkpt lat="45.82891" lon="3.38138">
        <ele>362.50543212891</ele>
        <time>2020-05-23T18:57:39.632Z</time>
      </trkpt>
      <trkpt lat="45.82881" lon="3.38172">
        <ele>363.07614135742</ele>
        <time>2020-05-23T18:57:41.266Z</time>
      </trkpt>
      <trkpt lat="45.82871" lon="3.38221">
        <ele>362.04895019531</ele>
        <time>2020-05-23T18:57:42.913Z</time>
      </trkpt>
      <trkpt lat="45.82867" lon="3.38233">
        <ele>361.76098632812</ele>
        <time>2020-05-23T18:57:44.563Z</time>
      </trkpt>
      <trkpt lat="45.82834" lon="3.38238">
        <ele>361.3</ele>
      </trkpt>
      <trkpt lat="45.82807" lon="3.38223">
        <ele>361.1</ele>
      </trkpt>
      <trkpt lat="45.82793" lon="3.3822">
        <ele>360.9</ele>
      </trkpt>
      <trkpt lat="45.82788" lon="3.38243">
        <ele>360.5</ele>
      </trkpt>
      <trkpt lat="45.82781" lon="3.3828">
        <ele>360.7</ele>
      </trkpt>
      <trkpt lat="45.82775" lon="3.38317">
        <ele>361.26129150391</ele>
        <time>2020-05-23T18:57:51.295Z</time>
      </trkpt>
      <trkpt lat="45.8277" lon="3.38364">
        <ele>361.95645141602</ele>
        <time>2020-05-23T18:57:53.009Z</time>
      </trkpt>
      <trkpt lat="45.8277" lon="3.38379">
        <ele>362.31640625</ele>
        <time>2020-05-23T18:57:54.727Z</time>
      </trkpt>
      <trkpt lat="45.82776" lon="3.38405">
        <ele>362.93786621094</ele>
        <time>2020-05-23T18:57:56.452Z</time>
      </trkpt>
      <trkpt lat="45.82787" lon="3.38447">
        <ele>363.52087402344</ele>
        <time>2020-05-23T18:57:58.188Z</time>
      </trkpt>
      <trkpt lat="45.82801" lon="3.38507">
        <ele>364.74468994141</ele>
        <time>2020-05-23T18:57:59.940Z</time>
      </trkpt>
      <trkpt lat="45.82813" lon="3.38582">
        <ele>365.89669799805</ele>
        <time>2020-05-23T18:58:01.712Z</time>
      </trkpt>
      <trkpt lat="45.82814" lon="3.38595">
        <ele>366.06466674805</ele>
        <time>2020-05-23T18:58:03.487Z</time>
      </trkpt>
      <trkpt lat="45.82813" lon="3.38609">
        <ele>366.04901123047</ele>
        <time>2020-05-23T18:58:05.265Z</time>
      </trkpt>
      <trkpt lat="45.82804" lon="3.3867">
        <ele>365.08071899414</ele>
        <time>2020-05-23T18:58:07.059Z</time>
      </trkpt>
      <trkpt lat="45.82804" lon="3.3867">
        <ele>365.08306884766</ele>
        <time>2020-05-23T18:58:08.853Z</time>
      </trkpt>
      <trkpt lat="45.82788" lon="3.38839">
        <ele>365.78994750977</ele>
        <time>2020-05-23T18:58:10.691Z</time>
      </trkpt>
      <trkpt lat="45.82779" lon="3.38921">
        <ele>364.80783081055</ele>
        <time>2020-05-23T18:58:12.550Z</time>
      </trkpt>
      <trkpt lat="45.82778" lon="3.38948">
        <ele>365.06610107422</ele>
        <time>2020-05-23T18:58:14.416Z</time>
      </trkpt>
      <trkpt lat="45.8277" lon="3.39023">
        <ele>366.14794921875</ele>
        <time>2020-05-23T18:58:16.301Z</time>
      </trkpt>
      <trkpt lat="45.82767" lon="3.39043">
        <ele>365.8</ele>
      </trkpt>
      <trkpt lat="45.82765" lon="3.39062">
        <ele>366</ele>
      </trkpt>
      <trkpt lat="45.82767" lon="3.39084">
        <ele>366.2</ele>
      </trkpt>
      <trkpt lat="45.82764" lon="3.3911">
        <ele>366.4</ele>
      </trkpt>
      <trkpt lat="45.82764" lon="3.39134">
        <ele>366.7</ele>
      </trkpt>
      <trkpt lat="45.82759" lon="3.39167">
        <ele>367</ele>
      </trkpt>
      <trkpt lat="45.82762" lon="3.39232">
        <ele>367</ele>
      </trkpt>
      <trkpt lat="45.82768" lon="3.39291">
        <ele>366.3</ele>
      </trkpt>
      <trkpt lat="45.82771" lon="3.39354">
        <ele>365.5</ele>
      </trkpt>
      <trkpt lat="45.82771" lon="3.39443">
        <ele>365.48373413086</ele>
        <time>2020-05-23T18:58:29.872Z</time>
      </trkpt>
      <trkpt lat="45.82761" lon="3.39495">
        <ele>364.17098999023</ele>
        <time>2020-05-23T18:58:31.879Z</time>
      </trkpt>
      <trkpt lat="45.82742" lon="3.39548">
        <ele>363.71408081055</ele>
        <time>2020-05-23T18:58:33.901Z</time>
      </trkpt>
      <trkpt lat="45.8272" lon="3.39603">
        <ele>362.89627075195</ele>
        <time>2020-05-23T18:58:35.939Z</time>
      </trkpt>
      <trkpt lat="45.82692" lon="3.39667">
        <ele>361.92553710938</ele>
        <time>2020-05-23T18:58:37.996Z</time>
      </trkpt>
      <trkpt lat="45.8268" lon="3.39698">
        <ele>361.98831176758</ele>
        <time>2020-05-23T18:58:40.062Z</time>
      </trkpt>
      <trkpt lat="45.82663" lon="3.39756">
        <ele>361.5803527832</ele>
        <time>2020-05-23T18:58:42.144Z</time>
      </trkpt>
      <trkpt lat="45.82657" lon="3.39768">
        <ele>361.32708740234</ele>
        <time>2020-05-23T18:58:44.230Z</time>
      </trkpt>
      <trkpt lat="45.82624" lon="3.39819">
        <ele>358.34405517578</ele>
        <time>2020-05-23T18:58:46.334Z</time>
      </trkpt>
      <trkpt lat="45.82617" lon="3.39836">
        <ele>357.62423706055</ele>
        <time>2020-05-23T18:58:48.443Z</time>
      </trkpt>
      <trkpt lat="45.82607" lon="3.39875">
        <ele>356.91638183594</ele>
        <time>2020-05-23T18:58:50.562Z</time>
      </trkpt>
      <trkpt lat="45.82599" lon="3.39919">
        <ele>356.19647216797</ele>
        <time>2020-05-23T18:58:52.693Z</time>
      </trkpt>
      <trkpt lat="45.82601" lon="3.39951">
        <ele>355.7</ele>
      </trkpt>
      <trkpt lat="45.82603" lon="3.39967">
        <ele>355.9</ele>
      </trkpt>
      <trkpt lat="45.82605" lon="3.39986">
        <ele>356.1</ele>
      </trkpt>
      <trkpt lat="45.82609" lon="3.40029">
        <ele>356.97811889648</ele>
        <time>2020-05-23T18:58:59.139Z</time>
      </trkpt>
      <trkpt lat="45.82611" lon="3.40077">
        <ele>358.07638549805</ele>
        <time>2020-05-23T18:59:01.311Z</time>
      </trkpt>
      <trkpt lat="45.82615" lon="3.4013">
        <ele>358.42855834961</ele>
        <time>2020-05-23T18:59:03.496Z</time>
      </trkpt>
      <trkpt lat="45.82614" lon="3.4015">
        <ele>358.4045715332</ele>
        <time>2020-05-23T18:59:05.686Z</time>
      </trkpt>
      <trkpt lat="45.82609" lon="3.40174">
        <ele>358.28457641602</ele>
        <time>2020-05-23T18:59:07.883Z</time>
      </trkpt>
      <trkpt lat="45.82598" lon="3.4019">
        <ele>358.21981811523</ele>
        <time>2020-05-23T18:59:10.085Z</time>
      </trkpt>
      <trkpt lat="45.82561" lon="3.4021">
        <ele>357.53869628906</ele>
        <time>2020-05-23T18:59:12.302Z</time>
      </trkpt>
      <trkpt lat="45.8254" lon="3.40225">
        <ele>357.33395385742</ele>
        <time>2020-05-23T18:59:14.527Z</time>
      </trkpt>
      <trkpt lat="45.82518" lon="3.40247">
        <ele>357.10095214844</ele>
        <time>2020-05-23T18:59:16.762Z</time>
      </trkpt>
      <trkpt lat="45.82471" lon="3.40298">
        <ele>355.98657226562</ele>
        <time>2020-05-23T18:59:19.018Z</time>
      </trkpt>
      <trkpt lat="45.8245" lon="3.40296">
        <ele>355.7</ele>
      </trkpt>
      <trkpt lat="45.82434" lon="3.40284">
        <ele>355.5</ele>
      </trkpt>
      <trkpt lat="45.82419" lon="3.40282">
        <ele>355.4</ele>
      </trkpt>
      <trkpt lat="45.82388" lon="3.40266">
        <ele>354.99291992188</ele>
        <time>2020-05-23T18:59:25.848Z</time>
      </trkpt>
      <trkpt lat="45.82334" lon="3.40231">
        <ele>353.68566894531</ele>
        <time>2020-05-23T18:59:28.159Z</time>
      </trkpt>
      <trkpt lat="45.82236" lon="3.40181">
        <ele>351.33407592773</ele>
        <time>2020-05-23T18:59:30.508Z</time>
      </trkpt>
      <trkpt lat="45.82214" lon="3.40171">
        <ele>350.90307617188</ele>
        <time>2020-05-23T18:59:32.865Z</time>
      </trkpt>
      <trkpt lat="45.82156" lon="3.4015">
        <ele>351.85708618164</ele>
        <time>2020-05-23T18:59:35.244Z</time>
      </trkpt>
      <trkpt lat="45.8212" lon="3.40133">
        <ele>351.6628112793</ele>
        <time>2020-05-23T18:59:37.636Z</time>
      </trkpt>
      <trkpt lat="45.82074" lon="3.40105">
        <ele>350.3190612793</ele>
        <time>2020-05-23T18:59:40.047Z</time>
      </trkpt>
      <trkpt lat="45.82053" lon="3.40086">
        <ele>349.5553894043</ele>
        <time>2020-05-23T18:59:42.467Z</time>
      </trkpt>
      <trkpt lat="45.8201" lon="3.40042">
        <ele>347.97164916992</ele>
        <time>2020-05-23T18:59:44.906Z</time>
      </trkpt>
      <trkpt lat="45.81978" lon="3.40011">
        <ele>346.90390014648</ele>
        <time>2020-05-23T18:59:47.359Z</time>
      </trkpt>
      <trkpt lat="45.81947" lon="3.39978">
        <ele>346.41241455078</ele>
        <time>2020-05-23T18:59:49.826Z</time>
      </trkpt>
      <trkpt lat="45.81916" lon="3.39948">
        <ele>346.06448364258</ele>
        <time>2020-05-23T18:59:52.307Z</time>
      </trkpt>
      <trkpt lat="45.81883" lon="3.3993">
        <ele>346.14511108398</ele>
        <time>2020-05-23T18:59:54.801Z</time>
      </trkpt>
      <trkpt lat="45.81841" lon="3.39918">
        <ele>347.22491455078</ele>
        <time>2020-05-23T18:59:57.310Z</time>
      </trkpt>
      <trkpt lat="45.81829" lon="3.39926">
        <ele>347.94482421875</ele>
        <time>2020-05-23T18:59:59.824Z</time>
      </trkpt>
      <trkpt lat="45.81826" lon="3.3994">
        <ele>348.45660400391</ele>
        <time>2020-05-23T19:00:02.342Z</time>
      </trkpt>
      <trkpt lat="45.81814" lon="3.40069">
        <ele>349.31164550781</ele>
        <time>2020-05-23T19:00:04.893Z</time>
      </trkpt>
      <trkpt lat="45.81806" lon="3.40113">
        <ele>349.19152832031</ele>
        <time>2020-05-23T19:00:07.455Z</time>
      </trkpt>
      <trkpt lat="45.81802" lon="3.40129">
        <ele>349.32760620117</ele>
        <time>2020-05-23T19:00:10.022Z</time>
      </trkpt>
      <trkpt lat="45.81795" lon="3.4015">
        <ele>349.49557495117</ele>
        <time>2020-05-23T19:00:12.595Z</time>
      </trkpt>
      <trkpt lat="45.81773" lon="3.40205">
        <ele>348.27676391602</ele>
        <time>2020-05-23T19:00:15.184Z</time>
      </trkpt>
      <trkpt lat="45.81755" lon="3.40256">
        <ele>346.90054321289</ele>
        <time>2020-05-23T19:00:17.787Z</time>
      </trkpt>
      <trkpt lat="45.81734" lon="3.40323">
        <ele>346</ele>
        <time>2020-05-23T19:00:20.409Z</time>
      </trkpt>
      <trkpt lat="45.81708" lon="3.40401">
        <ele>347.09442138672</ele>
        <time>2020-05-23T19:00:23.053Z</time>
      </trkpt>
      <trkpt lat="45.81684" lon="3.40479">
        <ele>347.65530395508</ele>
        <time>2020-05-23T19:00:25.719Z</time>
      </trkpt>
      <trkpt lat="45.81677" lon="3.40511">
        <ele>347.87124633789</ele>
        <time>2020-05-23T19:00:28.393Z</time>
      </trkpt>
      <trkpt lat="45.81662" lon="3.40595">
        <ele>347.56036376953</ele>
        <time>2020-05-23T19:00:31.089Z</time>
      </trkpt>
      <trkpt lat="45.81653" lon="3.40633">
        <ele>346.65560913086</ele>
        <time>2020-05-23T19:00:33.795Z</time>
      </trkpt>
      <trkpt lat="45.81611" lon="3.4077">
        <ele>349.44857788086</ele>
        <time>2020-05-23T19:00:36.539Z</time>
      </trkpt>
      <trkpt lat="45.81602" lon="3.40794">
        <ele>350.13247680664</ele>
        <time>2020-05-23T19:00:39.290Z</time>
      </trkpt>
      <trkpt lat="45.81591" lon="3.40819">
        <ele>350.64633178711</ele>
        <time>2020-05-23T19:00:42.049Z</time>
      </trkpt>
      <trkpt lat="45.81568" lon="3.40856">
        <ele>351.18051147461</ele>
        <time>2020-05-23T19:00:44.820Z</time>
      </trkpt>
      <trkpt lat="45.81554" lon="3.40859">
        <ele>351.28372192383</ele>
        <time>2020-05-23T19:00:47.597Z</time>
      </trkpt>
      <trkpt lat="45.81544" lon="3.40853">
        <ele>351.37969970703</ele>
        <time>2020-05-23T19:00:50.377Z</time>
      </trkpt>
      <trkpt lat="45.81522" lon="3.40836">
        <ele>351.94876098633</ele>
        <time>2020-05-23T19:00:53.167Z</time>
      </trkpt>
      <trkpt lat="45.81484" lon="3.408">
        <ele>353.29254150391</ele>
        <time>2020-05-23T19:00:55.973Z</time>
      </trkpt>
      <trkpt lat="45.81435" lon="3.4076">
        <ele>354.38180541992</ele>
        <time>2020-05-23T19:00:58.800Z</time>
      </trkpt>
      <trkpt lat="45.81397" lon="3.40723">
        <ele>354.39379882812</ele>
        <time>2020-05-23T19:01:01.643Z</time>
      </trkpt>
      <trkpt lat="45.8138" lon="3.40703">
        <ele>354.46105957031</ele>
        <time>2020-05-23T19:01:04.494Z</time>
      </trkpt>
      <trkpt lat="45.81372" lon="3.40692">
        <ele>354.52105712891</ele>
        <time>2020-05-23T19:01:07.349Z</time>
      </trkpt>
      <trkpt lat="45.81338" lon="3.40634">
        <ele>354.06774902344</ele>
        <time>2020-05-23T19:01:10.224Z</time>
      </trkpt>
      <trkpt lat="45.81311" lon="3.40595">
        <ele>353.69735717773</ele>
        <time>2020-05-23T19:01:13.113Z</time>
      </trkpt>
      <trkpt lat="45.81291" lon="3.40561">
        <ele>352.03231811523</ele>
        <time>2020-05-23T19:01:16.013Z</time>
      </trkpt>
      <trkpt lat="45.81258" lon="3.40497">
        <ele>348.78192138672</ele>
        <time>2020-05-23T19:01:18.933Z</time>
      </trkpt>
      <trkpt lat="45.81256" lon="3.40485">
        <ele>348.32598876953</ele>
        <time>2020-05-23T19:01:21.856Z</time>
      </trkpt>
      <trkpt lat="45.81264" lon="3.40463">
        <ele>347.7600402832</ele>
        <time>2020-05-23T19:01:24.786Z</time>
      </trkpt>
      <trkpt lat="45.81271" lon="3.40453">
        <ele>347.68804931641</ele>
        <time>2020-05-23T19:01:27.719Z</time>
      </trkpt>
      <trkpt lat="45.81294" lon="3.40424">
        <ele>347.82272338867</ele>
        <time>2020-05-23T19:01:30.663Z</time>
      </trkpt>
      <trkpt lat="45.81313" lon="3.40395">
        <ele>347.74493408203</ele>
        <time>2020-05-23T19:01:33.617Z</time>
      </trkpt>
      <trkpt lat="45.81349" lon="3.40325">
        <ele>347.28067016602</ele>
        <time>2020-05-23T19:01:36.594Z</time>
      </trkpt>
      <trkpt lat="45.81357" lon="3.40298">
        <ele>347.60461425781</ele>
        <time>2020-05-23T19:01:39.578Z</time>
      </trkpt>
      <trkpt lat="45.81365" lon="3.40252">
        <ele>348.1565246582</ele>
        <time>2020-05-23T19:01:42.574Z</time>
      </trkpt>
      <trkpt lat="45.81359" lon="3.40222">
        <ele>348.677734375</ele>
        <time>2020-05-23T19:01:45.578Z</time>
      </trkpt>
      <trkpt lat="45.81331" lon="3.40179">
        <ele>349.34121704102</ele>
        <time>2020-05-23T19:01:48.597Z</time>
      </trkpt>
      <trkpt lat="45.81317" lon="3.4015">
        <ele>349.5212097168</ele>
        <time>2020-05-23T19:01:51.625Z</time>
      </trkpt>
      <trkpt lat="45.81309" lon="3.40129">
        <ele>349.67718505859</ele>
        <time>2020-05-23T19:01:54.659Z</time>
      </trkpt>
      <trkpt lat="45.81291" lon="3.40057">
        <ele>349.82891845703</ele>
        <time>2020-05-23T19:01:57.712Z</time>
      </trkpt>
      <trkpt lat="45.81287" lon="3.39983">
        <ele>349.56185913086</ele>
        <time>2020-05-23T19:02:00.784Z</time>
      </trkpt>
      <trkpt lat="45.81279" lon="3.39924">
        <ele>349.27801513672</ele>
        <time>2020-05-23T19:02:03.872Z</time>
      </trkpt>
      <trkpt lat="45.81293" lon="3.39862">
        <ele>348.18142700195</ele>
        <time>2020-05-23T19:02:06.976Z</time>
      </trkpt>
      <trkpt lat="45.81293" lon="3.39842">
        <ele>347.77722167969</ele>
        <time>2020-05-23T19:02:10.085Z</time>
      </trkpt>
      <trkpt lat="45.81285" lon="3.39838">
        <ele>347.63323974609</ele>
        <time>2020-05-23T19:02:13.197Z</time>
      </trkpt>
      <trkpt lat="45.81232" lon="3.39848">
        <ele>347.11730957031</ele>
        <time>2020-05-23T19:02:16.329Z</time>
      </trkpt>
      <trkpt lat="45.81183" lon="3.39852">
        <ele>347.51113891602</ele>
        <time>2020-05-23T19:02:19.479Z</time>
      </trkpt>
      <trkpt lat="45.81171" lon="3.39851">
        <ele>347.64309692383</ele>
        <time>2020-05-23T19:02:22.633Z</time>
      </trkpt>
      <trkpt lat="45.81159" lon="3.39854">
        <ele>347.82305908203</ele>
        <time>2020-05-23T19:02:25.791Z</time>
      </trkpt>
      <trkpt lat="45.81097" lon="3.39886">
        <ele>347.50131225586</ele>
        <time>2020-05-23T19:02:28.973Z</time>
      </trkpt>
      <trkpt lat="45.81041" lon="3.39908">
        <ele>351.0924987793</ele>
        <time>2020-05-23T19:02:32.177Z</time>
      </trkpt>
      <trkpt lat="45.80963" lon="3.39947">
        <ele>354.10641479492</ele>
        <time>2020-05-23T19:02:35.411Z</time>
      </trkpt>
      <trkpt lat="45.80939" lon="3.39957">
        <ele>354.39437866211</ele>
        <time>2020-05-23T19:02:38.654Z</time>
      </trkpt>
      <trkpt lat="45.80884" lon="3.39988">
        <ele>358.08380126953</ele>
        <time>2020-05-23T19:02:41.918Z</time>
      </trkpt>
      <trkpt lat="45.80847" lon="3.40001">
        <ele>361.15487670898</ele>
        <time>2020-05-23T19:02:45.196Z</time>
      </trkpt>
      <trkpt lat="45.80835" lon="3.40007">
        <ele>362.01873779297</ele>
        <time>2020-05-23T19:02:48.479Z</time>
      </trkpt>
      <trkpt lat="45.80802" lon="3.4002">
        <ele>364.10870361328</ele>
        <time>2020-05-23T19:02:51.774Z</time>
      </trkpt>
      <trkpt lat="45.80737" lon="3.4005">
        <ele>368.30587768555</ele>
        <time>2020-05-23T19:02:55.094Z</time>
      </trkpt>
      <trkpt lat="45.80686" lon="3.40067">
        <ele>373.45974731445</ele>
        <time>2020-05-23T19:02:58.433Z</time>
      </trkpt>
      <trkpt lat="45.8067" lon="3.40074">
        <ele>376.20727539062</ele>
        <time>2020-05-23T19:03:01.778Z</time>
      </trkpt>
      <trkpt lat="45.80626" lon="3.40098">
        <ele>383.1852722168</ele>
        <time>2020-05-23T19:03:05.140Z</time>
      </trkpt>
      <trkpt lat="45.80551" lon="3.40135">
        <ele>388.92886352539</ele>
        <time>2020-05-23T19:03:08.531Z</time>
      </trkpt>
      <trkpt lat="45.80482" lon="3.40165">
        <ele>392.66546630859</ele>
        <time>2020-05-23T19:03:11.948Z</time>
      </trkpt>
      <trkpt lat="45.80447" lon="3.40182">
        <ele>393.28656005859</ele>
        <time>2020-05-23T19:03:15.379Z</time>
      </trkpt>
      <trkpt lat="45.80434" lon="3.40187">
        <ele>393.26257324219</ele>
        <time>2020-05-23T19:03:18.815Z</time>
      </trkpt>
      <trkpt lat="45.80408" lon="3.40195">
        <ele>393.28656005859</ele>
        <time>2020-05-23T19:03:22.260Z</time>
      </trkpt>
      <trkpt lat="45.80382" lon="3.40208">
        <ele>394.30902099609</ele>
        <time>2020-05-23T19:03:25.715Z</time>
      </trkpt>
      <trkpt lat="45.80359" lon="3.40216">
        <ele>395.41284179688</ele>
        <time>2020-05-23T19:03:29.179Z</time>
      </trkpt>
      <trkpt lat="45.80324" lon="3.40233">
        <ele>397.09255981445</ele>
        <time>2020-05-23T19:03:32.656Z</time>
      </trkpt>
      <trkpt lat="45.80262" lon="3.40261">
        <ele>400.06805419922</ele>
        <time>2020-05-23T19:03:36.157Z</time>
      </trkpt>
      <trkpt lat="45.80227" lon="3.4028">
        <ele>402.40237426758</ele>
        <time>2020-05-23T19:03:39.672Z</time>
      </trkpt>
      <trkpt lat="45.80197" lon="3.4029">
        <ele>405.57266235352</ele>
        <time>2020-05-23T19:03:43.198Z</time>
      </trkpt>
      <trkpt lat="45.80157" lon="3.40311">
        <ele>409.43539428711</ele>
        <time>2020-05-23T19:03:46.739Z</time>
      </trkpt>
      <trkpt lat="45.80122" lon="3.40324">
        <ele>411.88775634766</ele>
        <time>2020-05-23T19:03:50.294Z</time>
      </trkpt>
      <trkpt lat="45.80093" lon="3.40341">
        <ele>414.17935180664</ele>
        <time>2020-05-23T19:03:53.860Z</time>
      </trkpt>
      <trkpt lat="45.80054" lon="3.40355">
        <ele>417.29458618164</ele>
        <time>2020-05-23T19:03:57.441Z</time>
      </trkpt>
      <trkpt lat="45.80054" lon="3.40355">
        <ele>417.31063842773</ele>
        <time>2020-05-23T19:04:01.022Z</time>
      </trkpt>
      <trkpt lat="45.80054" lon="3.40355">
        <ele>417.31338500977</ele>
        <time>2020-05-23T19:04:04.603Z</time>
      </trkpt>
      <trkpt lat="45.80006" lon="3.40379">
        <ele>421.63265991211</ele>
        <time>2020-05-23T19:04:08.202Z</time>
      </trkpt>
      <trkpt lat="45.79951" lon="3.40403">
        <ele>428.10461425781</ele>
        <time>2020-05-23T19:04:11.822Z</time>
      </trkpt>
      <trkpt lat="45.79899" lon="3.4042">
        <ele>431.50231933594</ele>
        <time>2020-05-23T19:04:15.461Z</time>
      </trkpt>
      <trkpt lat="45.79883" lon="3.40427">
        <ele>432.20016479492</ele>
        <time>2020-05-23T19:04:19.107Z</time>
      </trkpt>
      <trkpt lat="45.79853" lon="3.40444">
        <ele>434.13803100586</ele>
        <time>2020-05-23T19:04:22.764Z</time>
      </trkpt>
      <trkpt lat="45.79844" lon="3.40448">
        <ele>434.71395874023</ele>
        <time>2020-05-23T19:04:26.425Z</time>
      </trkpt>
      <trkpt lat="45.79804" lon="3.40459">
        <ele>436.35125732422</ele>
        <time>2020-05-23T19:04:30.101Z</time>
      </trkpt>
      <trkpt lat="45.79785" lon="3.40466">
        <ele>436.89117431641</ele>
        <time>2020-05-23T19:04:33.784Z</time>
      </trkpt>
      <trkpt lat="45.79745" lon="3.40495">
        <ele>438.67791748047</ele>
        <time>2020-05-23T19:04:37.483Z</time>
      </trkpt>
      <trkpt lat="45.79705" lon="3.40519">
        <ele>440.59970092773</ele>
        <time>2020-05-23T19:04:41.198Z</time>
      </trkpt>
      <trkpt lat="45.7969" lon="3.40531">
        <ele>441.13961791992</ele>
        <time>2020-05-23T19:04:44.919Z</time>
      </trkpt>
      <trkpt lat="45.7965" lon="3.40566">
        <ele>441.63812255859</ele>
        <time>2020-05-23T19:04:48.657Z</time>
      </trkpt>
      <trkpt lat="45.7962" lon="3.40588">
        <ele>441.62850952148</ele>
        <time>2020-05-23T19:04:52.407Z</time>
      </trkpt>
      <trkpt lat="45.79607" lon="3.40596">
        <ele>442.44439697266</ele>
        <time>2020-05-23T19:04:56.162Z</time>
      </trkpt>
      <trkpt lat="45.79556" lon="3.40615">
        <ele>445.16156005859</ele>
        <time>2020-05-23T19:04:59.937Z</time>
      </trkpt>
      <trkpt lat="45.79545" lon="3.40617">
        <ele>445.22274780273</ele>
        <time>2020-05-23T19:05:03.716Z</time>
      </trkpt>
      <trkpt lat="45.79534" lon="3.40615">
        <ele>445.19873046875</ele>
        <time>2020-05-23T19:05:07.499Z</time>
      </trkpt>
      <trkpt lat="45.79513" lon="3.40608">
        <ele>445.11474609375</ele>
        <time>2020-05-23T19:05:11.290Z</time>
      </trkpt>
      <trkpt lat="45.79487" lon="3.40595">
        <ele>444.87634277344</ele>
        <time>2020-05-23T19:05:15.091Z</time>
      </trkpt>
      <trkpt lat="45.79477" lon="3.40591">
        <ele>444.73236083984</ele>
        <time>2020-05-23T19:05:18.895Z</time>
      </trkpt>
      <trkpt lat="45.79439" lon="3.4058">
        <ele>444.67678833008</ele>
        <time>2020-05-23T19:05:22.713Z</time>
      </trkpt>
      <trkpt lat="45.79425" lon="3.40575">
        <ele>444.71279907227</ele>
        <time>2020-05-23T19:05:26.537Z</time>
      </trkpt>
      <trkpt lat="45.79373" lon="3.40552">
        <ele>444.94729614258</ele>
        <time>2020-05-23T19:05:30.381Z</time>
      </trkpt>
      <trkpt lat="45.79314" lon="3.40539">
        <ele>447.17697143555</ele>
        <time>2020-05-23T19:05:34.246Z</time>
      </trkpt>
      <trkpt lat="45.79261" lon="3.40519">
        <ele>445.22756958008</ele>
        <time>2020-05-23T19:05:38.131Z</time>
      </trkpt>
      <trkpt lat="45.79219" lon="3.40505">
        <ele>442.72775268555</ele>
        <time>2020-05-23T19:05:42.032Z</time>
      </trkpt>
      <trkpt lat="45.79168" lon="3.40491">
        <ele>438.05514526367</ele>
        <time>2020-05-23T19:05:45.952Z</time>
      </trkpt>
      <trkpt lat="45.7909" lon="3.40465">
        <ele>431.1018371582</ele>
        <time>2020-05-23T19:05:49.901Z</time>
      </trkpt>
      <trkpt lat="45.78971" lon="3.40416">
        <ele>426.88613891602</ele>
        <time>2020-05-23T19:05:53.895Z</time>
      </trkpt>
      <trkpt lat="45.78897" lon="3.40392">
        <ele>426.15209960938</ele>
        <time>2020-05-23T19:05:57.917Z</time>
      </trkpt>
      <trkpt lat="45.78848" lon="3.40375">
        <ele>427.56719970703</ele>
        <time>2020-05-23T19:06:01.957Z</time>
      </trkpt>
      <trkpt lat="45.78766" lon="3.4035">
        <ele>430.02841186523</ele>
        <time>2020-05-23T19:06:06.027Z</time>
      </trkpt>
      <trkpt lat="45.78728" lon="3.40334">
        <ele>429.80770874023</ele>
        <time>2020-05-23T19:06:10.112Z</time>
      </trkpt>
      <trkpt lat="45.78658" lon="3.4031">
        <ele>431.88568115234</ele>
        <time>2020-05-23T19:06:14.223Z</time>
      </trkpt>
      <trkpt lat="45.78609" lon="3.40296">
        <ele>434.06930541992</ele>
        <time>2020-05-23T19:06:18.352Z</time>
      </trkpt>
      <trkpt lat="45.78593" lon="3.4029">
        <ele>434.64520263672</ele>
        <time>2020-05-23T19:06:22.487Z</time>
      </trkpt>
      <trkpt lat="45.78566" lon="3.40278">
        <ele>435.47915649414</ele>
        <time>2020-05-23T19:06:26.632Z</time>
      </trkpt>
      <trkpt lat="45.78516" lon="3.40262">
        <ele>437.07174682617</ele>
        <time>2020-05-23T19:06:30.796Z</time>
      </trkpt>
      <trkpt lat="45.78453" lon="3.40236">
        <ele>439.77447509766</ele>
        <time>2020-05-23T19:06:34.984Z</time>
      </trkpt>
      <trkpt lat="45.7841" lon="3.40217">
        <ele>442.05108642578</ele>
        <time>2020-05-23T19:06:39.188Z</time>
      </trkpt>
      <trkpt lat="45.78386" lon="3.4021">
        <ele>442.96362304688</ele>
        <time>2020-05-23T19:06:43.401Z</time>
      </trkpt>
      <trkpt lat="45.78352" lon="3.40202">
        <ele>447.9548034668</ele>
        <time>2020-05-23T19:06:47.627Z</time>
      </trkpt>
      <trkpt lat="45.78301" lon="3.40183">
        <ele>454.99829101562</ele>
        <time>2020-05-23T19:06:51.872Z</time>
      </trkpt>
      <trkpt lat="45.78281" lon="3.40177">
        <ele>454.7776184082</ele>
        <time>2020-05-23T19:06:56.124Z</time>
      </trkpt>
      <trkpt lat="45.7825" lon="3.40171">
        <ele>454.50164794922</ele>
        <time>2020-05-23T19:07:00.388Z</time>
      </trkpt>
      <trkpt lat="45.78237" lon="3.40173">
        <ele>454.87359619141</ele>
        <time>2020-05-23T19:07:04.656Z</time>
      </trkpt>
      <trkpt lat="45.78225" lon="3.40179">
        <ele>455.66546630859</ele>
        <time>2020-05-23T19:07:08.929Z</time>
      </trkpt>
      <trkpt lat="45.78212" lon="3.40203">
        <ele>456.3</ele>
      </trkpt>
      <trkpt lat="45.78207" lon="3.4023">
        <ele>457.3</ele>
      </trkpt>
      <trkpt lat="45.78205" lon="3.40245">
        <ele>457.9</ele>
      </trkpt>
      <trkpt lat="45.78208" lon="3.40274">
        <ele>459.4</ele>
      </trkpt>
      <trkpt lat="45.78212" lon="3.4032">
        <ele>462.1</ele>
      </trkpt>
      <trkpt lat="45.78209" lon="3.40356">
        <ele>464.3</ele>
      </trkpt>
      <trkpt lat="45.78211" lon="3.40369">
        <ele>465</ele>
      </trkpt>
      <trkpt lat="45.78214" lon="3.40408">
        <ele>465.7536315918</ele>
        <time>2020-05-23T19:07:39.086Z</time>
      </trkpt>
      <trkpt lat="45.78211" lon="3.40476">
        <ele>468.84289550781</ele>
        <time>2020-05-23T19:07:43.438Z</time>
      </trkpt>
      <trkpt lat="45.78213" lon="3.40532">
        <ele>471.11544799805</ele>
        <time>2020-05-23T19:07:47.804Z</time>
      </trkpt>
      <trkpt lat="45.78221" lon="3.40614">
        <ele>474.3</ele>
      </trkpt>
      <trkpt lat="45.78228" lon="3.40635">
        <ele>474.2</ele>
      </trkpt>
      <trkpt lat="45.78229" lon="3.40658">
        <ele>474.81790161133</ele>
        <time>2020-05-23T19:07:56.590Z</time>
      </trkpt>
      <trkpt lat="45.78236" lon="3.40669">
        <ele>474.64993286133</ele>
        <time>2020-05-23T19:08:00.993Z</time>
      </trkpt>
      <trkpt lat="45.78252" lon="3.40682">
        <ele>474.24252319336</ele>
        <time>2020-05-23T19:08:05.402Z</time>
      </trkpt>
      <trkpt lat="45.78301" lon="3.40698">
        <ele>471.33898925781</ele>
        <time>2020-05-23T19:08:09.830Z</time>
      </trkpt>
      <trkpt lat="45.78334" lon="3.40713">
        <ele>469.62908935547</ele>
        <time>2020-05-23T19:08:14.270Z</time>
      </trkpt>
      <trkpt lat="45.78348" lon="3.40715">
        <ele>469.1725769043</ele>
        <time>2020-05-23T19:08:18.715Z</time>
      </trkpt>
      <trkpt lat="45.78394" lon="3.40718">
        <ele>467.88754272461</ele>
        <time>2020-05-23T19:08:23.177Z</time>
      </trkpt>
      <trkpt lat="45.78427" lon="3.40712">
        <ele>468.20370483398</ele>
        <time>2020-05-23T19:08:27.651Z</time>
      </trkpt>
      <trkpt lat="45.78448" lon="3.40682">
        <ele>469.9</ele>
      </trkpt>
      <trkpt lat="45.78484" lon="3.40633">
        <ele>470.51147460938</ele>
        <time>2020-05-23T19:08:36.639Z</time>
      </trkpt>
      <trkpt lat="45.78499" lon="3.40598">
        <ele>469.66229248047</ele>
        <time>2020-05-23T19:08:41.153Z</time>
      </trkpt>
      <trkpt lat="45.7851" lon="3.40586">
        <ele>468.70245361328</ele>
        <time>2020-05-23T19:08:45.672Z</time>
      </trkpt>
      <trkpt lat="45.78539" lon="3.40572">
        <ele>466.80676269531</ele>
        <time>2020-05-23T19:08:50.203Z</time>
      </trkpt>
      <trkpt lat="45.7857" lon="3.40566">
        <ele>464.5559387207</ele>
        <time>2020-05-23T19:08:54.745Z</time>
      </trkpt>
      <trkpt lat="45.78601" lon="3.40571">
        <ele>462.13235473633</ele>
        <time>2020-05-23T19:08:59.298Z</time>
      </trkpt>
      <trkpt lat="45.78622" lon="3.40594">
        <ele>463.6</ele>
      </trkpt>
      <trkpt lat="45.78653" lon="3.40596">
        <ele>458.78469848633</ele>
        <time>2020-05-23T19:09:03.871Z</time>
      </trkpt>
      <trkpt lat="45.787" lon="3.40602">
        <ele>455.63290405273</ele>
        <time>2020-05-23T19:09:08.461Z</time>
      </trkpt>
      <trkpt lat="45.78722" lon="3.40608">
        <ele>454.14462280273</ele>
        <time>2020-05-23T19:09:13.060Z</time>
      </trkpt>
      <trkpt lat="45.78737" lon="3.4062">
        <ele>451.91299438477</ele>
        <time>2020-05-23T19:09:17.665Z</time>
      </trkpt>
      <trkpt lat="45.78746" lon="3.40657">
        <ele>451.28909301758</ele>
        <time>2020-05-23T19:09:22.280Z</time>
      </trkpt>
      <trkpt lat="45.78742" lon="3.40683">
        <ele>455.3</ele>
      </trkpt>
      <trkpt lat="45.78727" lon="3.40696">
        <ele>455.2</ele>
      </trkpt>
      <trkpt lat="45.78724" lon="3.4071">
        <ele>454.5</ele>
      </trkpt>
      <trkpt lat="45.78718" lon="3.40722">
        <ele>454.1</ele>
      </trkpt>
      <trkpt lat="45.787" lon="3.40733">
        <ele>454.3</ele>
      </trkpt>
      <trkpt lat="45.78675" lon="3.40743">
        <ele>455</ele>
      </trkpt>
      <trkpt lat="45.78666" lon="3.40755">
        <ele>454.7</ele>
      </trkpt>
      <trkpt lat="45.78662" lon="3.40768">
        <ele>453.9</ele>
      </trkpt>
      <trkpt lat="45.78648" lon="3.40795">
        <ele>452.3</ele>
      </trkpt>
      <trkpt lat="45.78631" lon="3.40812">
        <ele>451.3</ele>
      </trkpt>
      <trkpt lat="45.78614" lon="3.40847">
        <ele>449.44921875</ele>
        <time>2020-05-23T19:09:45.515Z</time>
      </trkpt>
      <trkpt lat="45.78591" lon="3.4085">
        <ele>448.7</ele>
      </trkpt>
      <trkpt lat="45.78558" lon="3.40887">
        <ele>446.4</ele>
      </trkpt>
      <trkpt lat="45.78513" lon="3.40906">
        <ele>445</ele>
      </trkpt>
      <trkpt lat="45.78489" lon="3.40924">
        <ele>444.75100708008</ele>
        <time>2020-05-23T19:09:54.957Z</time>
      </trkpt>
      <trkpt lat="45.78464" lon="3.40939">
        <ele>442.95687866211</ele>
        <time>2020-05-23T19:09:59.702Z</time>
      </trkpt>
      <trkpt lat="45.78406" lon="3.40946">
        <ele>440.11337280273</ele>
        <time>2020-05-23T19:10:04.468Z</time>
      </trkpt>
      <trkpt lat="45.7839" lon="3.40951">
        <ele>438.79019165039</ele>
        <time>2020-05-23T19:10:09.240Z</time>
      </trkpt>
      <trkpt lat="45.78355" lon="3.4098">
        <ele>435.21987915039</ele>
        <time>2020-05-23T19:10:14.027Z</time>
      </trkpt>
      <trkpt lat="45.78314" lon="3.40993">
        <ele>430.9</ele>
      </trkpt>
      <trkpt lat="45.78279" lon="3.41006">
        <ele>429.4</ele>
      </trkpt>
      <trkpt lat="45.78226" lon="3.41016">
        <ele>429.91052246094</ele>
        <time>2020-05-23T19:10:28.480Z</time>
      </trkpt>
      <trkpt lat="45.78213" lon="3.41009">
        <ele>427.8</ele>
      </trkpt>
      <trkpt lat="45.7821" lon="3.41025">
        <ele>426.3</ele>
      </trkpt>
      <trkpt lat="45.78213" lon="3.41047">
        <ele>424.3</ele>
      </trkpt>
      <trkpt lat="45.78212" lon="3.41078">
        <ele>421.5</ele>
      </trkpt>
      <trkpt lat="45.78192" lon="3.41063">
        <ele>422.7</ele>
      </trkpt>
      <trkpt lat="45.78172" lon="3.41056">
        <ele>423</ele>
      </trkpt>
      <trkpt lat="45.78144" lon="3.41022">
        <ele>425.3</ele>
      </trkpt>
      <trkpt lat="45.78145" lon="3.41023">
        <ele>425.2</ele>
      </trkpt>
      <trkpt lat="45.78123" lon="3.40996">
        <ele>427.4</ele>
      </trkpt>
      <trkpt lat="45.78064" lon="3.40968">
        <ele>432.09368896484</ele>
        <time>2020-05-23T19:11:42.645Z</time>
      </trkpt>
      <trkpt lat="45.78023" lon="3.40954">
        <ele>433.2248840332</ele>
        <time>2020-05-23T19:11:47.683Z</time>
      </trkpt>
      <trkpt lat="45.78003" lon="3.40967">
        <ele>431.49609375</ele>
        <time>2020-05-23T19:11:52.729Z</time>
      </trkpt>
      <trkpt lat="45.77956" lon="3.40983">
        <ele>426.77069091797</ele>
        <time>2020-05-23T19:11:57.792Z</time>
      </trkpt>
      <trkpt lat="45.77921" lon="3.40983">
        <ele>425.37631225586</ele>
        <time>2020-05-23T19:12:02.868Z</time>
      </trkpt>
      <trkpt lat="45.7789" lon="3.40978">
        <ele>425.86825561523</ele>
        <time>2020-05-23T19:12:07.955Z</time>
      </trkpt>
      <trkpt lat="45.77844" lon="3.40977">
        <ele>424.33142089844</ele>
        <time>2020-05-23T19:12:13.059Z</time>
      </trkpt>
      <trkpt lat="45.77817" lon="3.40968">
        <ele>423.57553100586</ele>
        <time>2020-05-23T19:12:18.173Z</time>
      </trkpt>
      <trkpt lat="45.77772" lon="3.40938">
        <ele>421.10754394531</ele>
        <time>2020-05-23T19:12:23.305Z</time>
      </trkpt>
      <trkpt lat="45.77713" lon="3.40906">
        <ele>418.04959106445</ele>
        <time>2020-05-23T19:12:28.460Z</time>
      </trkpt>
      <trkpt lat="45.77638" lon="3.40897">
        <ele>414.09027099609</ele>
        <time>2020-05-23T19:12:33.643Z</time>
      </trkpt>
      <trkpt lat="45.77621" lon="3.4089">
        <ele>412.67541503906</ele>
        <time>2020-05-23T19:12:38.832Z</time>
      </trkpt>
      <trkpt lat="45.77589" lon="3.4086">
        <ele>411.01968383789</ele>
        <time>2020-05-23T19:12:44.035Z</time>
      </trkpt>
      <trkpt lat="45.77576" lon="3.40853">
        <ele>410.0358581543</ele>
        <time>2020-05-23T19:12:49.243Z</time>
      </trkpt>
      <trkpt lat="45.77564" lon="3.40851">
        <ele>408.86004638672</ele>
        <time>2020-05-23T19:12:54.455Z</time>
      </trkpt>
      <trkpt lat="45.77498" lon="3.40877">
        <ele>404.34716796875</ele>
        <time>2020-05-23T19:12:59.692Z</time>
      </trkpt>
      <trkpt lat="45.77475" lon="3.40877">
        <ele>402.7</ele>
      </trkpt>
      <trkpt lat="45.77459" lon="3.40874">
        <ele>401.5</ele>
      </trkpt>
      <trkpt lat="45.77452" lon="3.40863">
        <ele>400.6</ele>
      </trkpt>
      <trkpt lat="45.7744" lon="3.40839">
        <ele>398.9</ele>
      </trkpt>
      <trkpt lat="45.77423" lon="3.40813">
        <ele>396.5</ele>
      </trkpt>
      <trkpt lat="45.77391" lon="3.40813">
        <ele>395.51773071289</ele>
        <time>2020-05-23T19:13:26.002Z</time>
      </trkpt>
      <trkpt lat="45.77379" lon="3.40803">
        <ele>392.88693237305</ele>
        <time>2020-05-23T19:13:31.290Z</time>
      </trkpt>
      <trkpt lat="45.77372" lon="3.40778">
        <ele>384.6</ele>
      </trkpt>
      <trkpt lat="45.77371" lon="3.40756">
        <ele>383.3</ele>
      </trkpt>
      <trkpt lat="45.77372" lon="3.40754">
        <ele>383.6</ele>
      </trkpt>
      <trkpt lat="45.77377" lon="3.40737">
        <ele>383</ele>
      </trkpt>
      <trkpt lat="45.77384" lon="3.40717">
        <ele>382.3</ele>
      </trkpt>
      <trkpt lat="45.77417" lon="3.40663">
        <ele>389.529296875</ele>
        <time>2020-05-23T19:13:52.531Z</time>
      </trkpt>
      <trkpt lat="45.77421" lon="3.40636">
        <ele>388.25750732422</ele>
        <time>2020-05-23T19:13:57.870Z</time>
      </trkpt>
      <trkpt lat="45.77412" lon="3.40552">
        <ele>387.48550415039</ele>
        <time>2020-05-23T19:14:03.230Z</time>
      </trkpt>
      <trkpt lat="45.77412" lon="3.40525">
        <ele>388.64105224609</ele>
        <time>2020-05-23T19:14:08.597Z</time>
      </trkpt>
      <trkpt lat="45.77412" lon="3.40525">
        <ele>388.66116333008</ele>
        <time>2020-05-23T19:14:13.964Z</time>
      </trkpt>
      <trkpt lat="45.77412" lon="3.40525">
        <ele>388.65826416016</ele>
        <time>2020-05-23T19:14:19.331Z</time>
      </trkpt>
      <trkpt lat="45.77423" lon="3.40482">
        <ele>389.62622070312</ele>
        <time>2020-05-23T19:14:24.710Z</time>
      </trkpt>
      <trkpt lat="45.77431" lon="3.40429">
        <ele>389.75369262695</ele>
        <time>2020-05-23T19:14:30.102Z</time>
      </trkpt>
      <trkpt lat="45.77442" lon="3.40379">
        <ele>389.49957275391</ele>
        <time>2020-05-23T19:14:35.508Z</time>
      </trkpt>
      <trkpt lat="45.77446" lon="3.4031">
        <ele>384.70761108398</ele>
        <time>2020-05-23T19:14:40.931Z</time>
      </trkpt>
      <trkpt lat="45.77451" lon="3.40275">
        <ele>382.30801391602</ele>
        <time>2020-05-23T19:14:46.364Z</time>
      </trkpt>
      <trkpt lat="45.77485" lon="3.40183">
        <ele>382.79431152344</ele>
        <time>2020-05-23T19:14:51.823Z</time>
      </trkpt>
      <trkpt lat="45.77494" lon="3.40149">
        <ele>381.70727539062</ele>
        <time>2020-05-23T19:14:57.291Z</time>
      </trkpt>
      <trkpt lat="45.77497" lon="3.40116">
        <ele>378.27188110352</ele>
        <time>2020-05-23T19:15:02.768Z</time>
      </trkpt>
      <trkpt lat="45.77495" lon="3.40073">
        <ele>370.89379882812</ele>
        <time>2020-05-23T19:15:08.256Z</time>
      </trkpt>
      <trkpt lat="45.77497" lon="3.40046">
        <ele>367.55834960938</ele>
        <time>2020-05-23T19:15:13.751Z</time>
      </trkpt>
      <trkpt lat="45.77501" lon="3.40032">
        <ele>366.03610229492</ele>
        <time>2020-05-23T19:15:19.249Z</time>
      </trkpt>
      <trkpt lat="45.77516" lon="3.40006">
        <ele>364.78851318359</ele>
        <time>2020-05-23T19:15:24.756Z</time>
      </trkpt>
      <trkpt lat="45.77536" lon="3.39977">
        <ele>364.12725830078</ele>
        <time>2020-05-23T19:15:30.273Z</time>
      </trkpt>
      <trkpt lat="45.77596" lon="3.39901">
        <ele>360.67028808594</ele>
        <time>2020-05-23T19:15:35.820Z</time>
      </trkpt>
      <trkpt lat="45.77612" lon="3.39877">
        <ele>358.39031982422</ele>
        <time>2020-05-23T19:15:41.375Z</time>
      </trkpt>
      <trkpt lat="45.77617" lon="3.39864">
        <ele>356.49462890625</ele>
        <time>2020-05-23T19:15:46.934Z</time>
      </trkpt>
      <trkpt lat="45.77628" lon="3.39817">
        <ele>350.65380859375</ele>
        <time>2020-05-23T19:15:52.505Z</time>
      </trkpt>
      <trkpt lat="45.7764" lon="3.39787">
        <ele>347.34237670898</ele>
        <time>2020-05-23T19:15:58.085Z</time>
      </trkpt>
      <trkpt lat="45.7766" lon="3.39765">
        <ele>345.32711791992</ele>
        <time>2020-05-23T19:16:03.674Z</time>
      </trkpt>
      <trkpt lat="45.77673" lon="3.39755">
        <ele>345.62265014648</ele>
        <time>2020-05-23T19:16:09.269Z</time>
      </trkpt>
      <trkpt lat="45.77728" lon="3.39714">
        <ele>345</ele>
      </trkpt>
      <trkpt lat="45.77769" lon="3.3968">
        <ele>343.4</ele>
      </trkpt>
      <trkpt lat="45.77787" lon="3.39662">
        <ele>341.84652709961</ele>
        <time>2020-05-23T19:16:26.164Z</time>
      </trkpt>
      <trkpt lat="45.77787" lon="3.39631">
        <ele>340.7</ele>
      </trkpt>
      <trkpt lat="45.77797" lon="3.39614">
        <ele>340</ele>
      </trkpt>
      <trkpt lat="45.77811" lon="3.39609">
        <ele>339.74267578125</ele>
        <time>2020-05-23T19:16:31.823Z</time>
      </trkpt>
      <trkpt lat="45.77851" lon="3.3959">
        <ele>339.81399536133</ele>
        <time>2020-05-23T19:16:37.497Z</time>
      </trkpt>
      <trkpt lat="45.7789" lon="3.39585">
        <ele>340.41067504883</ele>
        <time>2020-05-23T19:16:43.185Z</time>
      </trkpt>
      <trkpt lat="45.77933" lon="3.3957">
        <ele>340.72259521484</ele>
        <time>2020-05-23T19:16:48.890Z</time>
      </trkpt>
      <trkpt lat="45.77973" lon="3.39545">
        <ele>338.52618408203</ele>
        <time>2020-05-23T19:16:54.610Z</time>
      </trkpt>
      <trkpt lat="45.78003" lon="3.39532">
        <ele>337.259765625</ele>
        <time>2020-05-23T19:17:00.342Z</time>
      </trkpt>
      <trkpt lat="45.78038" lon="3.39521">
        <ele>335.78399658203</ele>
        <time>2020-05-23T19:17:06.087Z</time>
      </trkpt>
      <trkpt lat="45.78077" lon="3.39511">
        <ele>334.98504638672</ele>
        <time>2020-05-23T19:17:11.846Z</time>
      </trkpt>
      <trkpt lat="45.78093" lon="3.39503">
        <ele>334.60110473633</ele>
        <time>2020-05-23T19:17:17.611Z</time>
      </trkpt>
      <trkpt lat="45.78106" lon="3.3947">
        <ele>333</ele>
      </trkpt>
      <trkpt lat="45.7814" lon="3.39386">
        <ele>326.81280517578</ele>
        <time>2020-05-23T19:17:29.186Z</time>
      </trkpt>
      <trkpt lat="45.78141" lon="3.39352">
        <ele>326.1</ele>
      </trkpt>
      <trkpt lat="45.7814" lon="3.39329">
        <ele>325.3</ele>
      </trkpt>
      <trkpt lat="45.7814" lon="3.39299">
        <ele>324.9</ele>
      </trkpt>
      <trkpt lat="45.78139" lon="3.39168">
        <ele>321.83764648438</ele>
        <time>2020-05-23T19:17:46.674Z</time>
      </trkpt>
      <trkpt lat="45.78139" lon="3.39138">
        <ele>321.47769165039</ele>
        <time>2020-05-23T19:17:52.538Z</time>
      </trkpt>
      <trkpt lat="45.78138" lon="3.39107">
        <ele>321.10653686523</ele>
        <time>2020-05-23T19:17:58.410Z</time>
      </trkpt>
      <trkpt lat="45.78138" lon="3.3906">
        <ele>320.54183959961</ele>
        <time>2020-05-23T19:18:04.293Z</time>
      </trkpt>
      <trkpt lat="45.78137" lon="3.39013">
        <ele>320.01275634766</ele>
        <time>2020-05-23T19:18:10.188Z</time>
      </trkpt>
      <trkpt lat="45.78135" lon="3.38982">
        <ele>320.03677368164</ele>
        <time>2020-05-23T19:18:16.091Z</time>
      </trkpt>
      <trkpt lat="45.78122" lon="3.3891">
        <ele>320.19274902344</ele>
        <time>2020-05-23T19:18:22.013Z</time>
      </trkpt>
      <trkpt lat="45.78115" lon="3.38846">
        <ele>320.27673339844</ele>
        <time>2020-05-23T19:18:27.952Z</time>
      </trkpt>
      <trkpt lat="45.78111" lon="3.3876">
        <ele>321.11508178711</ele>
        <time>2020-05-23T19:18:33.913Z</time>
      </trkpt>
      <trkpt lat="45.78114" lon="3.38743">
        <ele>321.52304077148</ele>
        <time>2020-05-23T19:18:39.878Z</time>
      </trkpt>
      <trkpt lat="45.7812" lon="3.38735">
        <ele>321.57421875</ele>
        <time>2020-05-23T19:18:45.846Z</time>
      </trkpt>
      <trkpt lat="45.78138" lon="3.38727">
        <ele>321.45425415039</ele>
        <time>2020-05-23T19:18:51.821Z</time>
      </trkpt>
      <trkpt lat="45.78149" lon="3.38726">
        <ele>321.46548461914</ele>
        <time>2020-05-23T19:18:57.800Z</time>
      </trkpt>
      <trkpt lat="45.78182" lon="3.38726">
        <ele>321.46548461914</ele>
        <time>2020-05-23T19:19:03.791Z</time>
      </trkpt>
      <trkpt lat="45.78215" lon="3.38724">
        <ele>320.66436767578</ele>
        <time>2020-05-23T19:19:09.794Z</time>
      </trkpt>
      <trkpt lat="45.78247" lon="3.38724">
        <ele>320.51052856445</ele>
        <time>2020-05-23T19:19:15.809Z</time>
      </trkpt>
      <trkpt lat="45.78313" lon="3.38722">
        <ele>320.38763427734</ele>
        <time>2020-05-23T19:19:21.848Z</time>
      </trkpt>
      <trkpt lat="45.78345" lon="3.38719">
        <ele>319.96771240234</ele>
        <time>2020-05-23T19:19:27.898Z</time>
      </trkpt>
      <trkpt lat="45.7839" lon="3.38718">
        <ele>319.43853759766</ele>
        <time>2020-05-23T19:19:33.965Z</time>
      </trkpt>
      <trkpt lat="45.78409" lon="3.38716">
        <ele>319.41455078125</ele>
        <time>2020-05-23T19:19:40.039Z</time>
      </trkpt>
      <trkpt lat="45.78428" lon="3.38712">
        <ele>319.36654663086</ele>
        <time>2020-05-23T19:19:46.120Z</time>
      </trkpt>
      <trkpt lat="45.78464" lon="3.38701">
        <ele>319.23455810547</ele>
        <time>2020-05-23T19:19:52.214Z</time>
      </trkpt>
      <trkpt lat="45.78476" lon="3.38699">
        <ele>319.15600585938</ele>
        <time>2020-05-23T19:19:58.312Z</time>
      </trkpt>
      <trkpt lat="45.78489" lon="3.38687">
        <ele>319</ele>
        <time>2020-05-23T19:20:04.416Z</time>
      </trkpt>
      <trkpt lat="45.78491" lon="3.38661">
        <ele>319</ele>
      </trkpt>
      <trkpt lat="45.78493" lon="3.38623">
        <ele>319</ele>
      </trkpt>
      <trkpt lat="45.78497" lon="3.38589">
        <ele>319</ele>
      </trkpt>
      <trkpt lat="45.78504" lon="3.38526">
        <ele>319</ele>
        <time>2020-05-23T19:20:22.802Z</time>
      </trkpt>
      <trkpt lat="45.78515" lon="3.38429">
        <ele>321.50640869141</ele>
        <time>2020-05-23T19:20:28.973Z</time>
      </trkpt>
      <trkpt lat="45.7852" lon="3.38372">
        <ele>322.13031005859</ele>
        <time>2020-05-23T19:20:35.158Z</time>
      </trkpt>
      <trkpt lat="45.78522" lon="3.38356">
        <ele>322.29827880859</ele>
        <time>2020-05-23T19:20:41.347Z</time>
      </trkpt>
      <trkpt lat="45.78526" lon="3.38301">
        <ele>321.21627807617</ele>
        <time>2020-05-23T19:20:47.550Z</time>
      </trkpt>
      <trkpt lat="45.7854" lon="3.38145">
        <ele>318.25875854492</ele>
        <time>2020-05-23T19:20:53.793Z</time>
      </trkpt>
      <trkpt lat="45.78546" lon="3.38111">
        <ele>318.73867797852</ele>
        <time>2020-05-23T19:21:00.045Z</time>
      </trkpt>
      <trkpt lat="45.78552" lon="3.38062">
        <ele>319</ele>
        <time>2020-05-23T19:21:06.310Z</time>
      </trkpt>
      <trkpt lat="45.78558" lon="3.37976">
        <ele>319.46398925781</ele>
        <time>2020-05-23T19:21:12.597Z</time>
      </trkpt>
      <trkpt lat="45.78564" lon="3.37939">
        <ele>319.88961791992</ele>
        <time>2020-05-23T19:21:18.894Z</time>
      </trkpt>
      <trkpt lat="45.78569" lon="3.3789">
        <ele>319.82962036133</ele>
        <time>2020-05-23T19:21:25.203Z</time>
      </trkpt>
      <trkpt lat="45.78571" lon="3.37877">
        <ele>319.80563354492</ele>
        <time>2020-05-23T19:21:31.516Z</time>
      </trkpt>
      <trkpt lat="45.78582" lon="3.37736">
        <ele>321.32635498047</ele>
        <time>2020-05-23T19:21:37.865Z</time>
      </trkpt>
      <trkpt lat="45.78583" lon="3.37714">
        <ele>321.33834838867</ele>
        <time>2020-05-23T19:21:44.219Z</time>
      </trkpt>
      <trkpt lat="45.78571" lon="3.37675">
        <ele>320.73025512695</ele>
        <time>2020-05-23T19:21:50.584Z</time>
      </trkpt>
      <trkpt lat="45.78538" lon="3.37628">
        <ele>320.76385498047</ele>
        <time>2020-05-23T19:21:56.966Z</time>
      </trkpt>
      <trkpt lat="45.78529" lon="3.37614">
        <ele>320.81185913086</ele>
        <time>2020-05-23T19:22:03.353Z</time>
      </trkpt>
      <trkpt lat="45.78493" lon="3.37553">
        <ele>320.40469360352</ele>
        <time>2020-05-23T19:22:09.760Z</time>
      </trkpt>
      <trkpt lat="45.78476" lon="3.37518">
        <ele>320</ele>
        <time>2020-05-23T19:22:16.178Z</time>
      </trkpt>
      <trkpt lat="45.78476" lon="3.37505">
        <ele>320.11505126953</ele>
        <time>2020-05-23T19:22:22.599Z</time>
      </trkpt>
      <trkpt lat="45.78489" lon="3.37499">
        <ele>320</ele>
      </trkpt>
      <trkpt lat="45.78507" lon="3.37495">
        <ele>320.1</ele>
      </trkpt>
      <trkpt lat="45.78555" lon="3.37477">
        <ele>320.90197753906</ele>
        <time>2020-05-23T19:22:41.909Z</time>
      </trkpt>
      <trkpt lat="45.78588" lon="3.37465">
        <ele>321.18991088867</ele>
        <time>2020-05-23T19:22:48.373Z</time>
      </trkpt>
      <trkpt lat="45.78633" lon="3.37453">
        <ele>320.12350463867</ele>
        <time>2020-05-23T19:22:54.854Z</time>
      </trkpt>
      <trkpt lat="45.78672" lon="3.37441">
        <ele>319.7109375</ele>
        <time>2020-05-23T19:23:01.349Z</time>
      </trkpt>
      <trkpt lat="45.78684" lon="3.37439">
        <ele>319.54296875</ele>
        <time>2020-05-23T19:23:07.849Z</time>
      </trkpt>
      <trkpt lat="45.78723" lon="3.37437">
        <ele>319.05102539062</ele>
        <time>2020-05-23T19:23:14.363Z</time>
      </trkpt>
      <trkpt lat="45.78788" lon="3.37429">
        <ele>319.79794311523</ele>
        <time>2020-05-23T19:23:20.900Z</time>
      </trkpt>
      <trkpt lat="45.78841" lon="3.37421">
        <ele>319.32043457031</ele>
        <time>2020-05-23T19:23:27.457Z</time>
      </trkpt>
      <trkpt lat="45.7889" lon="3.37415">
        <ele>318.61029052734</ele>
        <time>2020-05-23T19:23:34.032Z</time>
      </trkpt>
      <trkpt lat="45.78927" lon="3.37409">
        <ele>318.46630859375</ele>
        <time>2020-05-23T19:23:40.620Z</time>
      </trkpt>
      <trkpt lat="45.78983" lon="3.37402">
        <ele>319.27508544922</ele>
        <time>2020-05-23T19:23:47.229Z</time>
      </trkpt>
      <trkpt lat="45.79077" lon="3.37381">
        <ele>321.19326782227</ele>
        <time>2020-05-23T19:23:53.872Z</time>
      </trkpt>
      <trkpt lat="45.79109" lon="3.37372">
        <ele>321.15692138672</ele>
        <time>2020-05-23T19:24:00.527Z</time>
      </trkpt>
      <trkpt lat="45.79115" lon="3.3736">
        <ele>320.7</ele>
      </trkpt>
      <trkpt lat="45.79116" lon="3.37333">
        <ele>320</ele>
      </trkpt>
      <trkpt lat="45.79127" lon="3.37309">
        <ele>320</ele>
        <time>2020-05-23T19:24:13.859Z</time>
      </trkpt>
      <trkpt lat="45.79132" lon="3.3729">
        <ele>320</ele>
        <time>2020-05-23T19:24:20.537Z</time>
      </trkpt>
      <trkpt lat="45.79139" lon="3.37273">
        <ele>320</ele>
        <time>2020-05-23T19:24:27.220Z</time>
      </trkpt>
      <trkpt lat="45.79156" lon="3.37226">
        <ele>320.4</ele>
      </trkpt>
      <trkpt lat="45.79181" lon="3.37194">
        <ele>322.38586425781</ele>
        <time>2020-05-23T19:24:33.928Z</time>
      </trkpt>
      <trkpt lat="45.79202" lon="3.37165">
        <ele>323.68402099609</ele>
        <time>2020-05-23T19:24:40.647Z</time>
      </trkpt>
      <trkpt lat="45.79223" lon="3.37142">
        <ele>324.45324707031</ele>
        <time>2020-05-23T19:24:47.376Z</time>
      </trkpt>
      <trkpt lat="45.79259" lon="3.37111">
        <ele>323.51953125</ele>
        <time>2020-05-23T19:24:54.120Z</time>
      </trkpt>
      <trkpt lat="45.79302" lon="3.37081">
        <ele>321.10528564453</ele>
        <time>2020-05-23T19:25:00.881Z</time>
      </trkpt>
      <trkpt lat="45.79324" lon="3.37058">
        <ele>320.5422668457</ele>
        <time>2020-05-23T19:25:07.652Z</time>
      </trkpt>
      <trkpt lat="45.79345" lon="3.37029">
        <ele>320.0383605957</ele>
        <time>2020-05-23T19:25:14.434Z</time>
      </trkpt>
      <trkpt lat="45.79381" lon="3.36962">
        <ele>320.43441772461</ele>
        <time>2020-05-23T19:25:21.237Z</time>
      </trkpt>
      <trkpt lat="45.79392" lon="3.36947">
        <ele>320.66458129883</ele>
        <time>2020-05-23T19:25:28.046Z</time>
      </trkpt>
      <trkpt lat="45.79432" lon="3.36903">
        <ele>322.01351928711</ele>
        <time>2020-05-23T19:25:34.873Z</time>
      </trkpt>
      <trkpt lat="45.79442" lon="3.36884">
        <ele>322.0661315918</ele>
        <time>2020-05-23T19:25:41.706Z</time>
      </trkpt>
      <trkpt lat="45.79466" lon="3.36812">
        <ele>321.13485717773</ele>
        <time>2020-05-23T19:25:48.560Z</time>
      </trkpt>
      <trkpt lat="45.79488" lon="3.36764">
        <ele>320.99444580078</ele>
        <time>2020-05-23T19:25:55.428Z</time>
      </trkpt>
      <trkpt lat="45.7951" lon="3.36713">
        <ele>320.46047973633</ele>
        <time>2020-05-23T19:26:02.311Z</time>
      </trkpt>
      <trkpt lat="45.79517" lon="3.367">
        <ele>320.54446411133</ele>
        <time>2020-05-23T19:26:09.199Z</time>
      </trkpt>
      <trkpt lat="45.79555" lon="3.36643">
        <ele>320.54428100586</ele>
        <time>2020-05-23T19:26:16.107Z</time>
      </trkpt>
      <trkpt lat="45.79577" lon="3.36598">
        <ele>320.53701782227</ele>
        <time>2020-05-23T19:26:23.029Z</time>
      </trkpt>
      <trkpt lat="45.79584" lon="3.36577">
        <ele>320.94586181641</ele>
        <time>2020-05-23T19:26:29.957Z</time>
      </trkpt>
      <trkpt lat="45.79593" lon="3.36524">
        <ele>321.11492919922</ele>
        <time>2020-05-23T19:26:36.898Z</time>
      </trkpt>
      <trkpt lat="45.79576" lon="3.36504">
        <ele>320.9</ele>
      </trkpt>
      <trkpt lat="45.79584" lon="3.36478">
        <ele>321.43698120117</ele>
        <time>2020-05-23T19:26:43.852Z</time>
      </trkpt>
      <trkpt lat="45.79621" lon="3.36445">
        <ele>321.2077331543</ele>
        <time>2020-05-23T19:26:50.821Z</time>
      </trkpt>
      <trkpt lat="45.79634" lon="3.36418">
        <ele>321.31213378906</ele>
        <time>2020-05-23T19:26:57.799Z</time>
      </trkpt>
      <trkpt lat="45.79637" lon="3.36401">
        <ele>321.40814208984</ele>
        <time>2020-05-23T19:27:04.781Z</time>
      </trkpt>
      <trkpt lat="45.79636" lon="3.36354">
        <ele>322.00802612305</ele>
        <time>2020-05-23T19:27:11.775Z</time>
      </trkpt>
      <trkpt lat="45.79639" lon="3.3631">
        <ele>322.44442749023</ele>
        <time>2020-05-23T19:27:18.780Z</time>
      </trkpt>
      <trkpt lat="45.79639" lon="3.36289">
        <ele>322.69638061523</ele>
        <time>2020-05-23T19:27:25.791Z</time>
      </trkpt>
      <trkpt lat="45.79637" lon="3.36268">
        <ele>323.00387573242</ele>
        <time>2020-05-23T19:27:32.807Z</time>
      </trkpt>
      <trkpt lat="45.79633" lon="3.3625">
        <ele>323.19128417969</ele>
        <time>2020-05-23T19:27:39.828Z</time>
      </trkpt>
      <trkpt lat="45.7962" lon="3.36201">
        <ele>323.65921020508</ele>
        <time>2020-05-23T19:27:46.862Z</time>
      </trkpt>
      <trkpt lat="45.79609" lon="3.36153">
        <ele>323.71881103516</ele>
        <time>2020-05-23T19:27:53.909Z</time>
      </trkpt>
      <trkpt lat="45.79586" lon="3.36033">
        <ele>323.25534057617</ele>
        <time>2020-05-23T19:28:00.988Z</time>
      </trkpt>
      <trkpt lat="45.79578" lon="3.35971">
        <ele>323.44729614258</ele>
        <time>2020-05-23T19:28:08.083Z</time>
      </trkpt>
      <trkpt lat="45.7956" lon="3.35866">
        <ele>322.25930786133</ele>
        <time>2020-05-23T19:28:15.205Z</time>
      </trkpt>
      <trkpt lat="45.79556" lon="3.35838">
        <ele>321.98760986328</ele>
        <time>2020-05-23T19:28:22.335Z</time>
      </trkpt>
      <trkpt lat="45.79548" lon="3.35799">
        <ele>322.08358764648</ele>
        <time>2020-05-23T19:28:29.475Z</time>
      </trkpt>
      <trkpt lat="45.79535" lon="3.35748">
        <ele>322.04638671875</ele>
        <time>2020-05-23T19:28:36.629Z</time>
      </trkpt>
      <trkpt lat="45.79535" lon="3.35748">
        <ele>322.04336547852</ele>
        <time>2020-05-23T19:28:43.783Z</time>
      </trkpt>
      <trkpt lat="45.79535" lon="3.35748">
        <ele>322.04403686523</ele>
        <time>2020-05-23T19:28:50.937Z</time>
      </trkpt>
      <trkpt lat="45.79522" lon="3.3571">
        <ele>322</ele>
        <time>2020-05-23T19:28:58.102Z</time>
      </trkpt>
      <trkpt lat="45.79513" lon="3.35679">
        <ele>322</ele>
        <time>2020-05-23T19:29:05.275Z</time>
      </trkpt>
      <trkpt lat="45.79499" lon="3.35618">
        <ele>322.08377075195</ele>
        <time>2020-05-23T19:29:12.465Z</time>
      </trkpt>
      <trkpt lat="45.79472" lon="3.35513">
        <ele>322.95025634766</ele>
        <time>2020-05-23T19:29:19.683Z</time>
      </trkpt>
      <trkpt lat="45.79467" lon="3.3549">
        <ele>322.12698364258</ele>
        <time>2020-05-23T19:29:26.907Z</time>
      </trkpt>
      <trkpt lat="45.79464" lon="3.35472">
        <ele>321.47906494141</ele>
        <time>2020-05-23T19:29:34.136Z</time>
      </trkpt>
      <trkpt lat="45.79452" lon="3.35357">
        <ele>319.76461791992</ele>
        <time>2020-05-23T19:29:41.394Z</time>
      </trkpt>
      <trkpt lat="45.79451" lon="3.3534">
        <ele>319.84332275391</ele>
        <time>2020-05-23T19:29:48.657Z</time>
      </trkpt>
      <trkpt lat="45.79441" lon="3.35246">
        <ele>319.56295776367</ele>
        <time>2020-05-23T19:29:55.944Z</time>
      </trkpt>
      <trkpt lat="45.79439" lon="3.35181">
        <ele>318.0032043457</ele>
        <time>2020-05-23T19:30:03.248Z</time>
      </trkpt>
      <trkpt lat="45.79437" lon="3.35164">
        <ele>317.59527587891</ele>
        <time>2020-05-23T19:30:10.556Z</time>
      </trkpt>
      <trkpt lat="45.79429" lon="3.35132">
        <ele>316.8274230957</ele>
        <time>2020-05-23T19:30:17.873Z</time>
      </trkpt>
      <trkpt lat="45.79419" lon="3.35105">
        <ele>316.17953491211</ele>
        <time>2020-05-23T19:30:25.197Z</time>
      </trkpt>
      <trkpt lat="45.79401" lon="3.35065">
        <ele>316.39016723633</ele>
        <time>2020-05-23T19:30:32.533Z</time>
      </trkpt>
      <trkpt lat="45.79391" lon="3.35025">
        <ele>316.87008666992</ele>
        <time>2020-05-23T19:30:39.880Z</time>
      </trkpt>
      <trkpt lat="45.79386" lon="3.34996">
        <ele>317.21801757812</ele>
        <time>2020-05-23T19:30:47.235Z</time>
      </trkpt>
      <trkpt lat="45.7938" lon="3.3495">
        <ele>317.76992797852</ele>
        <time>2020-05-23T19:30:54.602Z</time>
      </trkpt>
      <trkpt lat="45.7938" lon="3.34869">
        <ele>318.74176025391</ele>
        <time>2020-05-23T19:31:01.989Z</time>
      </trkpt>
      <trkpt lat="45.79374" lon="3.34819">
        <ele>318.82955932617</ele>
        <time>2020-05-23T19:31:09.389Z</time>
      </trkpt>
      <trkpt lat="45.79366" lon="3.34779">
        <ele>318.44564819336</ele>
        <time>2020-05-23T19:31:16.800Z</time>
      </trkpt>
      <trkpt lat="45.79342" lon="3.34695">
        <ele>318</ele>
        <time>2020-05-23T19:31:24.234Z</time>
      </trkpt>
      <trkpt lat="45.79335" lon="3.34673">
        <ele>318</ele>
        <time>2020-05-23T19:31:31.674Z</time>
      </trkpt>
      <trkpt lat="45.79321" lon="3.34638">
        <ele>318</ele>
        <time>2020-05-23T19:31:39.124Z</time>
      </trkpt>
      <trkpt lat="45.79302" lon="3.34597">
        <ele>318</ele>
        <time>2020-05-23T19:31:46.587Z</time>
      </trkpt>
      <trkpt lat="45.79283" lon="3.34567">
        <ele>318</ele>
        <time>2020-05-23T19:31:54.060Z</time>
      </trkpt>
      <trkpt lat="45.79248" lon="3.34527">
        <ele>318</ele>
        <time>2020-05-23T19:32:01.549Z</time>
      </trkpt>
      <trkpt lat="45.79238" lon="3.345">
        <ele>318.3</ele>
      </trkpt>
      <trkpt lat="45.79227" lon="3.34487">
        <ele>318.5</ele>
      </trkpt>
      <trkpt lat="45.79217" lon="3.3447">
        <ele>318.6</ele>
      </trkpt>
      <trkpt lat="45.79203" lon="3.34428">
        <ele>318.6</ele>
      </trkpt>
      <trkpt lat="45.792" lon="3.34414">
        <ele>318.6</ele>
      </trkpt>
      <trkpt lat="45.79203" lon="3.34404">
        <ele>318.5</ele>
      </trkpt>
      <trkpt lat="45.79213" lon="3.34392">
        <ele>318.3</ele>
      </trkpt>
      <trkpt lat="45.7922" lon="3.34377">
        <ele>318.3</ele>
      </trkpt>
      <trkpt lat="45.79215" lon="3.34356">
        <ele>318.73889160156</ele>
        <time>2020-05-23T19:32:46.683Z</time>
      </trkpt>
      <trkpt lat="45.79208" lon="3.34332">
        <ele>319</ele>
        <time>2020-05-23T19:32:54.232Z</time>
      </trkpt>
      <trkpt lat="45.79194" lon="3.34296">
        <ele>319</ele>
        <time>2020-05-23T19:33:01.791Z</time>
      </trkpt>
      <trkpt lat="45.79193" lon="3.34272">
        <ele>318.6</ele>
      </trkpt>
      <trkpt lat="45.79194" lon="3.34264">
        <ele>318.8</ele>
      </trkpt>
      <trkpt lat="45.79192" lon="3.34254">
        <ele>318.9</ele>
      </trkpt>
      <trkpt lat="45.79193" lon="3.34225">
        <ele>318.74880981445</ele>
        <time>2020-05-23T19:33:24.504Z</time>
      </trkpt>
      <trkpt lat="45.79195" lon="3.34214">
        <ele>318.43685913086</ele>
        <time>2020-05-23T19:33:32.085Z</time>
      </trkpt>
      <trkpt lat="45.79201" lon="3.34151">
        <ele>317.46575927734</ele>
        <time>2020-05-23T19:33:39.682Z</time>
      </trkpt>
      <trkpt lat="45.79201" lon="3.34113">
        <ele>318.37762451172</ele>
        <time>2020-05-23T19:33:47.289Z</time>
      </trkpt>
      <trkpt lat="45.79202" lon="3.34075">
        <ele>319.20159912109</ele>
        <time>2020-05-23T19:33:54.905Z</time>
      </trkpt>
      <trkpt lat="45.79207" lon="3.33978">
        <ele>318.95669555664</ele>
        <time>2020-05-23T19:34:02.546Z</time>
      </trkpt>
      <trkpt lat="45.79212" lon="3.33854">
        <ele>320.03466796875</ele>
        <time>2020-05-23T19:34:10.219Z</time>
      </trkpt>
      <trkpt lat="45.79214" lon="3.33833">
        <ele>320.26260375977</ele>
        <time>2020-05-23T19:34:17.897Z</time>
      </trkpt>
      <trkpt lat="45.79221" lon="3.33816">
        <ele>320.38259887695</ele>
        <time>2020-05-23T19:34:25.580Z</time>
      </trkpt>
      <trkpt lat="45.79234" lon="3.33799">
        <ele>320.57962036133</ele>
        <time>2020-05-23T19:34:33.270Z</time>
      </trkpt>
      <trkpt lat="45.79271" lon="3.3376">
        <ele>321.14263916016</ele>
        <time>2020-05-23T19:34:40.976Z</time>
      </trkpt>
      <trkpt lat="45.79281" lon="3.3374">
        <ele>321.86206054688</ele>
        <time>2020-05-23T19:34:48.688Z</time>
      </trkpt>
      <trkpt lat="45.79285" lon="3.33713">
        <ele>322.46197509766</ele>
        <time>2020-05-23T19:34:56.408Z</time>
      </trkpt>
      <trkpt lat="45.79286" lon="3.33692">
        <ele>322.95388793945</ele>
        <time>2020-05-23T19:35:04.133Z</time>
      </trkpt>
      <trkpt lat="45.79285" lon="3.33663">
        <ele>323.66177368164</ele>
        <time>2020-05-23T19:35:11.865Z</time>
      </trkpt>
      <trkpt lat="45.79277" lon="3.3354">
        <ele>327.74328613281</ele>
        <time>2020-05-23T19:35:19.629Z</time>
      </trkpt>
      <trkpt lat="45.79278" lon="3.33517">
        <ele>328.88311767578</ele>
        <time>2020-05-23T19:35:27.399Z</time>
      </trkpt>
      <trkpt lat="45.79281" lon="3.33499">
        <ele>329.49688720703</ele>
        <time>2020-05-23T19:35:35.173Z</time>
      </trkpt>
      <trkpt lat="45.79291" lon="3.33471">
        <ele>330.87661743164</ele>
        <time>2020-05-23T19:35:42.955Z</time>
      </trkpt>
      <trkpt lat="45.793" lon="3.33417">
        <ele>333.19311523438</ele>
        <time>2020-05-23T19:35:50.751Z</time>
      </trkpt>
      <trkpt lat="45.79304" lon="3.33401">
        <ele>334.00900268555</ele>
        <time>2020-05-23T19:35:58.552Z</time>
      </trkpt>
      <trkpt lat="45.79311" lon="3.33389">
        <ele>334.78796386719</ele>
        <time>2020-05-23T19:36:06.357Z</time>
      </trkpt>
      <trkpt lat="45.79338" lon="3.33359">
        <ele>337.41915893555</ele>
        <time>2020-05-23T19:36:14.174Z</time>
      </trkpt>
      <trkpt lat="45.79357" lon="3.33346">
        <ele>339.19757080078</ele>
        <time>2020-05-23T19:36:21.999Z</time>
      </trkpt>
      <trkpt lat="45.79372" lon="3.33333">
        <ele>340.87728881836</ele>
        <time>2020-05-23T19:36:29.830Z</time>
      </trkpt>
      <trkpt lat="45.79408" lon="3.33309">
        <ele>345.17202758789</ele>
        <time>2020-05-23T19:36:37.676Z</time>
      </trkpt>
      <trkpt lat="45.7942" lon="3.33298">
        <ele>346.82775878906</ele>
        <time>2020-05-23T19:36:45.527Z</time>
      </trkpt>
      <trkpt lat="45.79434" lon="3.33287">
        <ele>348.35623168945</ele>
        <time>2020-05-23T19:36:53.384Z</time>
      </trkpt>
      <trkpt lat="45.79453" lon="3.33265">
        <ele>350.81579589844</ele>
        <time>2020-05-23T19:37:01.250Z</time>
      </trkpt>
      <trkpt lat="45.79484" lon="3.33234">
        <ele>355.31359863281</ele>
        <time>2020-05-23T19:37:09.129Z</time>
      </trkpt>
      <trkpt lat="45.79497" lon="3.33225">
        <ele>356.64538574219</ele>
        <time>2020-05-23T19:37:17.014Z</time>
      </trkpt>
      <trkpt lat="45.79512" lon="3.33223">
        <ele>357.37725830078</ele>
        <time>2020-05-23T19:37:24.904Z</time>
      </trkpt>
      <trkpt lat="45.7956" lon="3.33243">
        <ele>357.30606079102</ele>
        <time>2020-05-23T19:37:32.812Z</time>
      </trkpt>
      <trkpt lat="45.79612" lon="3.33239">
        <ele>360.80947875977</ele>
        <time>2020-05-23T19:37:40.739Z</time>
      </trkpt>
      <trkpt lat="45.79624" lon="3.33241">
        <ele>361.02908325195</ele>
        <time>2020-05-23T19:37:48.671Z</time>
      </trkpt>
      <trkpt lat="45.79643" lon="3.33247">
        <ele>361.06884765625</ele>
        <time>2020-05-23T19:37:56.610Z</time>
      </trkpt>
      <trkpt lat="45.79671" lon="3.3326">
        <ele>360.62490844727</ele>
        <time>2020-05-23T19:38:04.559Z</time>
      </trkpt>
      <trkpt lat="45.79685" lon="3.33262">
        <ele>360.67291259766</ele>
        <time>2020-05-23T19:38:12.513Z</time>
      </trkpt>
      <trkpt lat="45.79707" lon="3.3326">
        <ele>361.05685424805</ele>
        <time>2020-05-23T19:38:20.475Z</time>
      </trkpt>
      <trkpt lat="45.79725" lon="3.33252">
        <ele>361.91763305664</ele>
        <time>2020-05-23T19:38:28.444Z</time>
      </trkpt>
      <trkpt lat="45.79741" lon="3.33239">
        <ele>362.62551879883</ele>
        <time>2020-05-23T19:38:36.420Z</time>
      </trkpt>
      <trkpt lat="45.79763" lon="3.33214">
        <ele>364.00836181641</ele>
        <time>2020-05-23T19:38:44.406Z</time>
      </trkpt>
      <trkpt lat="45.79761" lon="3.33201">
        <ele>364.88421630859</ele>
        <time>2020-05-23T19:38:52.396Z</time>
      </trkpt>
      <trkpt lat="45.7974" lon="3.33176">
        <ele>367.33743286133</ele>
        <time>2020-05-23T19:39:00.396Z</time>
      </trkpt>
      <trkpt lat="45.7973" lon="3.33153">
        <ele>368.92114257812</ele>
        <time>2020-05-23T19:39:08.402Z</time>
      </trkpt>
      <trkpt lat="45.79727" lon="3.3312">
        <ele>370.64886474609</ele>
        <time>2020-05-23T19:39:16.417Z</time>
      </trkpt>
      <trkpt lat="45.7972" lon="3.33077">
        <ele>374.90621948242</ele>
        <time>2020-05-23T19:39:24.443Z</time>
      </trkpt>
      <trkpt lat="45.79719" lon="3.33059">
        <ele>377.4977722168</ele>
        <time>2020-05-23T19:39:32.474Z</time>
      </trkpt>
      <trkpt lat="45.79707" lon="3.33007">
        <ele>384.73840332031</ele>
        <time>2020-05-23T19:39:40.519Z</time>
      </trkpt>
      <trkpt lat="45.79705" lon="3.32977">
        <ele>388.94619750977</ele>
        <time>2020-05-23T19:39:48.571Z</time>
      </trkpt>
      <trkpt lat="45.79708" lon="3.32968">
        <ele>390.49392700195</ele>
        <time>2020-05-23T19:39:56.626Z</time>
      </trkpt>
      <trkpt lat="45.79728" lon="3.32928">
        <ele>397.42108154297</ele>
        <time>2020-05-23T19:40:04.693Z</time>
      </trkpt>
      <trkpt lat="45.79737" lon="3.32912">
        <ele>399.36474609375</ele>
        <time>2020-05-23T19:40:12.766Z</time>
      </trkpt>
      <trkpt lat="45.79752" lon="3.32889">
        <ele>402.2082824707</ele>
        <time>2020-05-23T19:40:20.847Z</time>
      </trkpt>
      <trkpt lat="45.79778" lon="3.32846">
        <ele>408.17880249023</ele>
        <time>2020-05-23T19:40:28.942Z</time>
      </trkpt>
      <trkpt lat="45.79799" lon="3.328">
        <ele>415.99273681641</ele>
        <time>2020-05-23T19:40:37.051Z</time>
      </trkpt>
      <trkpt lat="45.79811" lon="3.32778">
        <ele>419.78463745117</ele>
        <time>2020-05-23T19:40:45.167Z</time>
      </trkpt>
      <trkpt lat="45.79831" lon="3.32756">
        <ele>422.99774169922</ele>
        <time>2020-05-23T19:40:53.292Z</time>
      </trkpt>
      <trkpt lat="45.79861" lon="3.32744">
        <ele>424.65347290039</ele>
        <time>2020-05-23T19:41:01.429Z</time>
      </trkpt>
      <trkpt lat="45.79874" lon="3.32736">
        <ele>426.1637878418</ele>
        <time>2020-05-23T19:41:09.571Z</time>
      </trkpt>
      <trkpt lat="45.79877" lon="3.32726">
        <ele>428.11947631836</ele>
        <time>2020-05-23T19:41:17.716Z</time>
      </trkpt>
      <trkpt lat="45.79867" lon="3.32713">
        <ele>428.3</ele>
      </trkpt>
      <trkpt lat="45.79853" lon="3.32699">
        <ele>430.6</ele>
      </trkpt>
      <trkpt lat="45.79838" lon="3.32675">
        <ele>434.7</ele>
      </trkpt>
      <trkpt lat="45.79819" lon="3.32663">
        <ele>437.42401123047</ele>
        <time>2020-05-23T19:41:34.041Z</time>
      </trkpt>
      <trkpt lat="45.79793" lon="3.32639">
        <ele>438.98385620117</ele>
        <time>2020-05-23T19:41:42.223Z</time>
      </trkpt>
      <trkpt lat="45.79787" lon="3.32632">
        <ele>439.48776245117</ele>
        <time>2020-05-23T19:41:50.408Z</time>
      </trkpt>
      <trkpt lat="45.79784" lon="3.32619">
        <ele>440.42361450195</ele>
        <time>2020-05-23T19:41:58.597Z</time>
      </trkpt>
      <trkpt lat="45.79792" lon="3.32584">
        <ele>442.46936035156</ele>
        <time>2020-05-23T19:42:06.795Z</time>
      </trkpt>
      <trkpt lat="45.79796" lon="3.32544">
        <ele>442.85330200195</ele>
        <time>2020-05-23T19:42:15.003Z</time>
      </trkpt>
      <trkpt lat="45.79795" lon="3.32527">
        <ele>443.3</ele>
      </trkpt>
      <trkpt lat="45.79786" lon="3.32521">
        <ele>443.36920166016</ele>
        <time>2020-05-23T19:42:23.218Z</time>
      </trkpt>
      <trkpt lat="45.79775" lon="3.32517">
        <ele>443.68115234375</ele>
        <time>2020-05-23T19:42:31.437Z</time>
      </trkpt>
      <trkpt lat="45.79718" lon="3.32509">
        <ele>445.05703735352</ele>
        <time>2020-05-23T19:42:39.677Z</time>
      </trkpt>
      <trkpt lat="45.79697" lon="3.32504">
        <ele>444.58050537109</ele>
        <time>2020-05-23T19:42:47.925Z</time>
      </trkpt>
      <trkpt lat="45.79677" lon="3.32496">
        <ele>444.24453735352</ele>
        <time>2020-05-23T19:42:56.181Z</time>
      </trkpt>
      <trkpt lat="45.79658" lon="3.32487">
        <ele>443.99258422852</ele>
        <time>2020-05-23T19:43:04.444Z</time>
      </trkpt>
      <trkpt lat="45.79645" lon="3.32472">
        <ele>444.24453735352</ele>
        <time>2020-05-23T19:43:12.713Z</time>
      </trkpt>
      <trkpt lat="45.79643" lon="3.32458">
        <ele>444.8444519043</ele>
        <time>2020-05-23T19:43:20.986Z</time>
      </trkpt>
      <trkpt lat="45.79645" lon="3.32442">
        <ele>445.6842956543</ele>
        <time>2020-05-23T19:43:29.263Z</time>
      </trkpt>
      <trkpt lat="45.79655" lon="3.32398">
        <ele>446</ele>
        <time>2020-05-23T19:43:37.551Z</time>
      </trkpt>
      <trkpt lat="45.79674" lon="3.32289">
        <ele>451.05200195312</ele>
        <time>2020-05-23T19:43:45.868Z</time>
      </trkpt>
      <trkpt lat="45.79678" lon="3.32248">
        <ele>451.91427612305</ele>
        <time>2020-05-23T19:43:54.196Z</time>
      </trkpt>
      <trkpt lat="45.7968" lon="3.32237">
        <ele>451.39837646484</ele>
        <time>2020-05-23T19:44:02.527Z</time>
      </trkpt>
      <trkpt lat="45.79687" lon="3.32222">
        <ele>451.08703613281</ele>
        <time>2020-05-23T19:44:10.862Z</time>
      </trkpt>
      <trkpt lat="45.79692" lon="3.32214">
        <ele>451.12301635742</ele>
        <time>2020-05-23T19:44:19.200Z</time>
      </trkpt>
      <trkpt lat="45.79712" lon="3.32194">
        <ele>451.84289550781</ele>
        <time>2020-05-23T19:44:27.547Z</time>
      </trkpt>
      <trkpt lat="45.79747" lon="3.3218">
        <ele>452.26010131836</ele>
        <time>2020-05-23T19:44:35.907Z</time>
      </trkpt>
      <trkpt lat="45.79757" lon="3.32179">
        <ele>452.26010131836</ele>
        <time>2020-05-23T19:44:44.271Z</time>
      </trkpt>
      <trkpt lat="45.79786" lon="3.32192">
        <ele>452.77194213867</ele>
        <time>2020-05-23T19:44:52.646Z</time>
      </trkpt>
      <trkpt lat="45.79816" lon="3.32217">
        <ele>452.0768737793</ele>
        <time>2020-05-23T19:45:01.033Z</time>
      </trkpt>
      <trkpt lat="45.79824" lon="3.32221">
        <ele>451.40496826172</ele>
        <time>2020-05-23T19:45:09.423Z</time>
      </trkpt>
      <trkpt lat="45.79853" lon="3.32224">
        <ele>448.81256103516</ele>
        <time>2020-05-23T19:45:17.824Z</time>
      </trkpt>
      <trkpt lat="45.79868" lon="3.32218">
        <ele>446.796875</ele>
        <time>2020-05-23T19:45:26.231Z</time>
      </trkpt>
      <trkpt lat="45.79888" lon="3.32189">
        <ele>447</ele>
      </trkpt>
      <trkpt lat="45.79923" lon="3.32183">
        <ele>441.30575561523</ele>
        <time>2020-05-23T19:45:34.659Z</time>
      </trkpt>
      <trkpt lat="45.79952" lon="3.32176">
        <ele>439.36938476562</ele>
        <time>2020-05-23T19:45:43.098Z</time>
      </trkpt>
      <trkpt lat="45.80019" lon="3.32165">
        <ele>434.7021484375</ele>
        <time>2020-05-23T19:45:51.562Z</time>
      </trkpt>
      <trkpt lat="45.80034" lon="3.32157">
        <ele>432.89865112305</ele>
        <time>2020-05-23T19:46:00.032Z</time>
      </trkpt>
      <trkpt lat="45.80035" lon="3.32123">
        <ele>431.3</ele>
      </trkpt>
      <trkpt lat="45.80062" lon="3.32109">
        <ele>423.55764770508</ele>
        <time>2020-05-23T19:46:08.517Z</time>
      </trkpt>
      <trkpt lat="45.80097" lon="3.32104">
        <ele>418.63696289062</ele>
        <time>2020-05-23T19:46:17.015Z</time>
      </trkpt>
      <trkpt lat="45.80124" lon="3.32081">
        <ele>417.6</ele>
      </trkpt>
      <trkpt lat="45.80155" lon="3.32096">
        <ele>409.19442749023</ele>
        <time>2020-05-23T19:46:34.045Z</time>
      </trkpt>
      <trkpt lat="45.80182" lon="3.32139">
        <ele>403.58340454102</ele>
        <time>2020-05-23T19:46:42.580Z</time>
      </trkpt>
      <trkpt lat="45.80194" lon="3.32188">
        <ele>403.28851318359</ele>
        <time>2020-05-23T19:46:51.129Z</time>
      </trkpt>
      <trkpt lat="45.802" lon="3.32219">
        <ele>399.92907714844</ele>
        <time>2020-05-23T19:46:59.686Z</time>
      </trkpt>
      <trkpt lat="45.80203" lon="3.32291">
        <ele>396.11001586914</ele>
        <time>2020-05-23T19:47:08.261Z</time>
      </trkpt>
      <trkpt lat="45.8021" lon="3.32344">
        <ele>390.30676269531</ele>
        <time>2020-05-23T19:47:16.850Z</time>
      </trkpt>
      <trkpt lat="45.80201" lon="3.32411">
        <ele>386.9684753418</ele>
        <time>2020-05-23T19:47:25.456Z</time>
      </trkpt>
      <trkpt lat="45.80169" lon="3.3251">
        <ele>381.56439208984</ele>
        <time>2020-05-23T19:47:34.090Z</time>
      </trkpt>
      <trkpt lat="45.80169" lon="3.32533">
        <ele>385.6</ele>
      </trkpt>
      <trkpt lat="45.80171" lon="3.32562">
        <ele>383.1</ele>
      </trkpt>
      <trkpt lat="45.80169" lon="3.32591">
        <ele>382.1</ele>
      </trkpt>
      <trkpt lat="45.80171" lon="3.32604">
        <ele>380.8</ele>
      </trkpt>
      <trkpt lat="45.80173" lon="3.32616">
        <ele>379.9</ele>
      </trkpt>
      <trkpt lat="45.8018" lon="3.32645">
        <ele>376.9</ele>
      </trkpt>
      <trkpt lat="45.80185" lon="3.32675">
        <ele>368.07876586914</ele>
        <time>2020-05-23T19:48:08.725Z</time>
      </trkpt>
      <trkpt lat="45.80196" lon="3.32713">
        <ele>365.17767333984</ele>
        <time>2020-05-23T19:48:17.414Z</time>
      </trkpt>
      <trkpt lat="45.80203" lon="3.32732">
        <ele>363.49795532227</ele>
        <time>2020-05-23T19:48:26.108Z</time>
      </trkpt>
      <trkpt lat="45.80222" lon="3.32763">
        <ele>358.96322631836</ele>
        <time>2020-05-23T19:48:34.813Z</time>
      </trkpt>
      <trkpt lat="45.80244" lon="3.3279">
        <ele>358.4</ele>
      </trkpt>
      <trkpt lat="45.80256" lon="3.32798">
        <ele>356.4</ele>
      </trkpt>
      <trkpt lat="45.80273" lon="3.32818">
        <ele>353.5</ele>
      </trkpt>
      <trkpt lat="45.80331" lon="3.32866">
        <ele>343.7</ele>
      </trkpt>
      <trkpt lat="45.80351" lon="3.32881">
        <ele>340.7</ele>
      </trkpt>
      <trkpt lat="45.80345" lon="3.32857">
        <ele>342.5</ele>
      </trkpt>
      <trkpt lat="45.80341" lon="3.32825">
        <ele>341.22311401367</ele>
        <time>2020-05-23T19:49:27.314Z</time>
      </trkpt>
      <trkpt lat="45.8033" lon="3.32772">
        <ele>343.6142578125</ele>
        <time>2020-05-23T19:49:36.103Z</time>
      </trkpt>
      <trkpt lat="45.80325" lon="3.32734">
        <ele>344.73007202148</ele>
        <time>2020-05-23T19:49:44.902Z</time>
      </trkpt>
      <trkpt lat="45.80323" lon="3.32703">
        <ele>345.36596679688</ele>
        <time>2020-05-23T19:49:53.709Z</time>
      </trkpt>
      <trkpt lat="45.80326" lon="3.32688">
        <ele>345.47052001953</ele>
        <time>2020-05-23T19:50:02.520Z</time>
      </trkpt>
      <trkpt lat="45.80334" lon="3.32683">
        <ele>344.78662109375</ele>
        <time>2020-05-23T19:50:11.334Z</time>
      </trkpt>
      <trkpt lat="45.80353" lon="3.32676">
        <ele>343.0403137207</ele>
        <time>2020-05-23T19:50:20.155Z</time>
      </trkpt>
      <trkpt lat="45.80388" lon="3.32669">
        <ele>339.72900390625</ele>
        <time>2020-05-23T19:50:28.989Z</time>
      </trkpt>
      <trkpt lat="45.80413" lon="3.32669">
        <ele>337.62408447266</ele>
        <time>2020-05-23T19:50:37.832Z</time>
      </trkpt>
      <trkpt lat="45.80495" lon="3.32671">
        <ele>332.3</ele>
      </trkpt>
      <trkpt lat="45.80513" lon="3.32662">
        <ele>330.19165039062</ele>
        <time>2020-05-23T19:50:55.588Z</time>
      </trkpt>
      <trkpt lat="45.80516" lon="3.32648">
        <ele>330.51559448242</ele>
        <time>2020-05-23T19:51:04.472Z</time>
      </trkpt>
      <trkpt lat="45.80516" lon="3.32584">
        <ele>331.91546630859</ele>
        <time>2020-05-23T19:51:13.373Z</time>
      </trkpt>
      <trkpt lat="45.80523" lon="3.32504">
        <ele>334.66949462891</ele>
        <time>2020-05-23T19:51:22.294Z</time>
      </trkpt>
      <trkpt lat="45.80522" lon="3.32423">
        <ele>342.01306152344</ele>
        <time>2020-05-23T19:51:31.236Z</time>
      </trkpt>
      <trkpt lat="45.80522" lon="3.32423">
        <ele>342.04461669922</ele>
        <time>2020-05-23T19:51:40.178Z</time>
      </trkpt>
      <trkpt lat="45.80522" lon="3.32423">
        <ele>342.03451538086</ele>
        <time>2020-05-23T19:51:49.120Z</time>
      </trkpt>
      <trkpt lat="45.80519" lon="3.32379">
        <ele>346.1008605957</ele>
        <time>2020-05-23T19:51:58.073Z</time>
      </trkpt>
      <trkpt lat="45.80517" lon="3.32361">
        <ele>348.62045288086</ele>
        <time>2020-05-23T19:52:07.031Z</time>
      </trkpt>
      <trkpt lat="45.80509" lon="3.32324">
        <ele>351.99954223633</ele>
        <time>2020-05-23T19:52:15.999Z</time>
      </trkpt>
      <trkpt lat="45.80505" lon="3.32301">
        <ele>353.51129150391</ele>
        <time>2020-05-23T19:52:24.973Z</time>
      </trkpt>
      <trkpt lat="45.805" lon="3.32256">
        <ele>358.41674804688</ele>
        <time>2020-05-23T19:52:33.958Z</time>
      </trkpt>
      <trkpt lat="45.80499" lon="3.32234">
        <ele>359.36459350586</ele>
        <time>2020-05-23T19:52:42.949Z</time>
      </trkpt>
      <trkpt lat="45.805" lon="3.32219">
        <ele>360.19244384766</ele>
        <time>2020-05-23T19:52:51.944Z</time>
      </trkpt>
      <trkpt lat="45.80506" lon="3.32182">
        <ele>361.8342590332</ele>
        <time>2020-05-23T19:53:00.948Z</time>
      </trkpt>
      <trkpt lat="45.80512" lon="3.32156">
        <ele>362.66973876953</ele>
        <time>2020-05-23T19:53:09.959Z</time>
      </trkpt>
      <trkpt lat="45.80526" lon="3.32103">
        <ele>359.85189819336</ele>
        <time>2020-05-23T19:53:18.985Z</time>
      </trkpt>
      <trkpt lat="45.80547" lon="3.32038">
        <ele>355.04412841797</ele>
        <time>2020-05-23T19:53:28.029Z</time>
      </trkpt>
      <trkpt lat="45.80561" lon="3.3199">
        <ele>351.57995605469</ele>
        <time>2020-05-23T19:53:37.086Z</time>
      </trkpt>
      <trkpt lat="45.80566" lon="3.31963">
        <ele>349.96020507812</ele>
        <time>2020-05-23T19:53:46.150Z</time>
      </trkpt>
      <trkpt lat="45.80587" lon="3.31817">
        <ele>344.11099243164</ele>
        <time>2020-05-23T19:53:55.252Z</time>
      </trkpt>
      <trkpt lat="45.80588" lon="3.31765">
        <ele>345</ele>
      </trkpt>
      <trkpt lat="45.80586" lon="3.31752">
        <ele>344.9</ele>
      </trkpt>
      <trkpt lat="45.80587" lon="3.31731">
        <ele>344.4</ele>
      </trkpt>
      <trkpt lat="45.80583" lon="3.31696">
        <ele>342.81143188477</ele>
        <time>2020-05-23T19:54:22.623Z</time>
      </trkpt>
      <trkpt lat="45.80579" lon="3.31681">
        <ele>342.99139404297</ele>
        <time>2020-05-23T19:54:31.760Z</time>
      </trkpt>
      <trkpt lat="45.80577" lon="3.31661">
        <ele>343.23135375977</ele>
        <time>2020-05-23T19:54:40.903Z</time>
      </trkpt>
      <trkpt lat="45.80586" lon="3.31588">
        <ele>344.4775390625</ele>
        <time>2020-05-23T19:54:50.064Z</time>
      </trkpt>
      <trkpt lat="45.8059" lon="3.31542">
        <ele>345.23233032227</ele>
        <time>2020-05-23T19:54:59.237Z</time>
      </trkpt>
      <trkpt lat="45.80596" lon="3.31421">
        <ele>348.8757019043</ele>
        <time>2020-05-23T19:55:08.441Z</time>
      </trkpt>
      <trkpt lat="45.80596" lon="3.31373">
        <ele>351.35641479492</ele>
        <time>2020-05-23T19:55:17.657Z</time>
      </trkpt>
      <trkpt lat="45.806" lon="3.31359">
        <ele>352.58020019531</ele>
        <time>2020-05-23T19:55:26.877Z</time>
      </trkpt>
      <trkpt lat="45.80607" lon="3.31356">
        <ele>353.43206787109</ele>
        <time>2020-05-23T19:55:36.100Z</time>
      </trkpt>
      <trkpt lat="45.80621" lon="3.31366">
        <ele>354.17593383789</ele>
        <time>2020-05-23T19:55:45.328Z</time>
      </trkpt>
      <trkpt lat="45.80654" lon="3.31412">
        <ele>353.83908081055</ele>
        <time>2020-05-23T19:55:54.573Z</time>
      </trkpt>
      <trkpt lat="45.80682" lon="3.31442">
        <ele>353.52423095703</ele>
        <time>2020-05-23T19:56:03.831Z</time>
      </trkpt>
      <trkpt lat="45.80727" lon="3.31477">
        <ele>354.12826538086</ele>
        <time>2020-05-23T19:56:13.108Z</time>
      </trkpt>
      <trkpt lat="45.80772" lon="3.31517">
        <ele>355.40710449219</ele>
        <time>2020-05-23T19:56:22.404Z</time>
      </trkpt>
      <trkpt lat="45.80802" lon="3.31537">
        <ele>356.36694335938</ele>
        <time>2020-05-23T19:56:31.712Z</time>
      </trkpt>
      <trkpt lat="45.80835" lon="3.31553">
        <ele>356.70919799805</ele>
        <time>2020-05-23T19:56:41.033Z</time>
      </trkpt>
      <trkpt lat="45.8087" lon="3.31574">
        <ele>356.60330200195</ele>
        <time>2020-05-23T19:56:50.367Z</time>
      </trkpt>
      <trkpt lat="45.80898" lon="3.31589">
        <ele>356.51306152344</ele>
        <time>2020-05-23T19:56:59.712Z</time>
      </trkpt>
      <trkpt lat="45.80946" lon="3.31619">
        <ele>356.84976196289</ele>
        <time>2020-05-23T19:57:09.076Z</time>
      </trkpt>
      <trkpt lat="45.80977" lon="3.31632">
        <ele>357.15859985352</ele>
        <time>2020-05-23T19:57:18.452Z</time>
      </trkpt>
      <trkpt lat="45.80999" lon="3.31643">
        <ele>356.89462280273</ele>
        <time>2020-05-23T19:57:27.837Z</time>
      </trkpt>
      <trkpt lat="45.81021" lon="3.31652">
        <ele>356.67868041992</ele>
        <time>2020-05-23T19:57:37.230Z</time>
      </trkpt>
      <trkpt lat="45.81092" lon="3.31685">
        <ele>355.55868530273</ele>
        <time>2020-05-23T19:57:46.650Z</time>
      </trkpt>
      <trkpt lat="45.81109" lon="3.31692">
        <ele>355.35470581055</ele>
        <time>2020-05-23T19:57:56.076Z</time>
      </trkpt>
      <trkpt lat="45.81133" lon="3.31706">
        <ele>355.06677246094</ele>
        <time>2020-05-23T19:58:05.512Z</time>
      </trkpt>
      <trkpt lat="45.81141" lon="3.31707">
        <ele>354.76620483398</ele>
        <time>2020-05-23T19:58:14.951Z</time>
      </trkpt>
      <trkpt lat="45.81147" lon="3.31702">
        <ele>354.19027709961</ele>
        <time>2020-05-23T19:58:24.392Z</time>
      </trkpt>
      <trkpt lat="45.81152" lon="3.31681">
        <ele>354.01556396484</ele>
        <time>2020-05-23T19:58:33.839Z</time>
      </trkpt>
      <trkpt lat="45.81151" lon="3.31539">
        <ele>352.6506652832</ele>
        <time>2020-05-23T19:58:43.322Z</time>
      </trkpt>
      <trkpt lat="45.81153" lon="3.31497">
        <ele>352.78759765625</ele>
        <time>2020-05-23T19:58:52.816Z</time>
      </trkpt>
      <trkpt lat="45.81164" lon="3.31427">
        <ele>352.66262817383</ele>
        <time>2020-05-23T19:59:02.328Z</time>
      </trkpt>
      <trkpt lat="45.81165" lon="3.31412">
        <ele>352.07473754883</ele>
        <time>2020-05-23T19:59:11.844Z</time>
      </trkpt>
      <trkpt lat="45.81163" lon="3.31389">
        <ele>351.34283447266</ele>
        <time>2020-05-23T19:59:21.366Z</time>
      </trkpt>
      <trkpt lat="45.81146" lon="3.31275">
        <ele>347.28201293945</ele>
        <time>2020-05-23T19:59:30.917Z</time>
      </trkpt>
      <trkpt lat="45.81148" lon="3.31244">
        <ele>345.72229003906</ele>
        <time>2020-05-23T19:59:40.476Z</time>
      </trkpt>
      <trkpt lat="45.81155" lon="3.31237">
        <ele>345.13439941406</ele>
        <time>2020-05-23T19:59:50.038Z</time>
      </trkpt>
      <trkpt lat="45.81166" lon="3.31237">
        <ele>344.73846435547</ele>
        <time>2020-05-23T19:59:59.604Z</time>
      </trkpt>
      <trkpt lat="45.8121" lon="3.31246">
        <ele>343.38381958008</ele>
        <time>2020-05-23T20:00:09.187Z</time>
      </trkpt>
      <trkpt lat="45.81244" lon="3.31251">
        <ele>341.62115478516</ele>
        <time>2020-05-23T20:00:18.782Z</time>
      </trkpt>
      <trkpt lat="45.81313" lon="3.31256">
        <ele>338.08288574219</ele>
        <time>2020-05-23T20:00:28.402Z</time>
      </trkpt>
      <trkpt lat="45.81343" lon="3.31256">
        <ele>336.28317260742</ele>
        <time>2020-05-23T20:00:38.033Z</time>
      </trkpt>
      <trkpt lat="45.81355" lon="3.31241">
        <ele>337.2</ele>
      </trkpt>
      <trkpt lat="45.81352" lon="3.31206">
        <ele>335.4</ele>
      </trkpt>
      <trkpt lat="45.8135" lon="3.31144">
        <ele>332.4</ele>
      </trkpt>
      <trkpt lat="45.81348" lon="3.31045">
        <ele>328.46157836914</ele>
        <time>2020-05-23T20:01:16.670Z</time>
      </trkpt>
      <trkpt lat="45.81346" lon="3.30972">
        <ele>327.03961181641</ele>
        <time>2020-05-23T20:01:26.378Z</time>
      </trkpt>
      <trkpt lat="45.81348" lon="3.30867">
        <ele>327.75775146484</ele>
        <time>2020-05-23T20:01:36.113Z</time>
      </trkpt>
      <trkpt lat="45.8135" lon="3.30844">
        <ele>328</ele>
        <time>2020-05-23T20:01:45.853Z</time>
      </trkpt>
      <trkpt lat="45.8136" lon="3.30831">
        <ele>328</ele>
        <time>2020-05-23T20:01:55.598Z</time>
      </trkpt>
      <trkpt lat="45.81372" lon="3.30833">
        <ele>328</ele>
        <time>2020-05-23T20:02:05.348Z</time>
      </trkpt>
      <trkpt lat="45.81431" lon="3.30859">
        <ele>327.19885253906</ele>
        <time>2020-05-23T20:02:15.120Z</time>
      </trkpt>
      <trkpt lat="45.81456" lon="3.30867">
        <ele>326.70693969727</ele>
        <time>2020-05-23T20:02:24.902Z</time>
      </trkpt>
      <trkpt lat="45.81546" lon="3.30887">
        <ele>324.2587890625</ele>
        <time>2020-05-23T20:02:34.717Z</time>
      </trkpt>
      <trkpt lat="45.81617" lon="3.30907">
        <ele>324.25973510742</ele>
        <time>2020-05-23T20:02:44.558Z</time>
      </trkpt>
      <trkpt lat="45.81654" lon="3.30915">
        <ele>323.81579589844</ele>
        <time>2020-05-23T20:02:54.413Z</time>
      </trkpt>
      <trkpt lat="45.81773" lon="3.30945">
        <ele>322.38803100586</ele>
        <time>2020-05-23T20:03:04.312Z</time>
      </trkpt>
      <trkpt lat="45.81912" lon="3.30983">
        <ele>322</ele>
        <time>2020-05-23T20:03:14.262Z</time>
      </trkpt>
      <trkpt lat="45.81995" lon="3.31004">
        <ele>322.27551269531</ele>
        <time>2020-05-23T20:03:24.243Z</time>
      </trkpt>
      <trkpt lat="45.82006" lon="3.31009">
        <ele>322.4075012207</ele>
        <time>2020-05-23T20:03:34.228Z</time>
      </trkpt>
      <trkpt lat="45.82015" lon="3.3102">
        <ele>322.43756103516</ele>
        <time>2020-05-23T20:03:44.217Z</time>
      </trkpt>
      <trkpt lat="45.82021" lon="3.31053">
        <ele>322.11361694336</ele>
        <time>2020-05-23T20:03:54.215Z</time>
      </trkpt>
      <trkpt lat="45.82021" lon="3.31072">
        <ele>321.88565063477</ele>
        <time>2020-05-23T20:04:04.218Z</time>
      </trkpt>
      <trkpt lat="45.82017" lon="3.3115">
        <ele>321.63766479492</ele>
        <time>2020-05-23T20:04:14.241Z</time>
      </trkpt>
      <trkpt lat="45.82017" lon="3.31185">
        <ele>321.88479614258</ele>
        <time>2020-05-23T20:04:24.272Z</time>
      </trkpt>
      <trkpt lat="45.82021" lon="3.31319">
        <ele>319.74719238281</ele>
        <time>2020-05-23T20:04:34.338Z</time>
      </trkpt>
      <trkpt lat="45.82021" lon="3.31377">
        <ele>319.05133056641</ele>
        <time>2020-05-23T20:04:44.418Z</time>
      </trkpt>
      <trkpt lat="45.82022" lon="3.31429">
        <ele>318.41543579102</ele>
        <time>2020-05-23T20:04:54.512Z</time>
      </trkpt>
      <trkpt lat="45.82027" lon="3.31493">
        <ele>318.3405456543</ele>
        <time>2020-05-23T20:05:04.622Z</time>
      </trkpt>
      <trkpt lat="45.82029" lon="3.31539">
        <ele>318.31655883789</ele>
        <time>2020-05-23T20:05:14.744Z</time>
      </trkpt>
      <trkpt lat="45.82031" lon="3.31652">
        <ele>318</ele>
        <time>2020-05-23T20:05:24.894Z</time>
      </trkpt>
      <trkpt lat="45.8203" lon="3.317">
        <ele>317.45889282227</ele>
        <time>2020-05-23T20:05:35.057Z</time>
      </trkpt>
      <trkpt lat="45.82028" lon="3.31742">
        <ele>316.93096923828</ele>
        <time>2020-05-23T20:05:45.230Z</time>
      </trkpt>
      <trkpt lat="45.82032" lon="3.31767">
        <ele>316.3</ele>
      </trkpt>
      <trkpt lat="45.82036" lon="3.31774">
        <ele>316.3</ele>
      </trkpt>
      <trkpt lat="45.8205" lon="3.31778">
        <ele>316.5</ele>
      </trkpt>
      <trkpt lat="45.82073" lon="3.31781">
        <ele>316.8</ele>
      </trkpt>
      <trkpt lat="45.82085" lon="3.31793">
        <ele>317.7106628418</ele>
        <time>2020-05-23T20:06:25.987Z</time>
      </trkpt>
      <trkpt lat="45.82103" lon="3.31797">
        <ele>318.14260864258</ele>
        <time>2020-05-23T20:06:36.197Z</time>
      </trkpt>
      <trkpt lat="45.8212" lon="3.31809">
        <ele>318.55053710938</ele>
        <time>2020-05-23T20:06:46.414Z</time>
      </trkpt>
      <trkpt lat="45.82135" lon="3.31827">
        <ele>318.91046142578</ele>
        <time>2020-05-23T20:06:56.638Z</time>
      </trkpt>
      <trkpt lat="45.82155" lon="3.31858">
        <ele>319.52264404297</ele>
        <time>2020-05-23T20:07:06.873Z</time>
      </trkpt>
      <trkpt lat="45.82178" lon="3.31904">
        <ele>320.20043945312</ele>
        <time>2020-05-23T20:07:17.122Z</time>
      </trkpt>
      <trkpt lat="45.82194" lon="3.31948">
        <ele>320.65249633789</ele>
        <time>2020-05-23T20:07:27.384Z</time>
      </trkpt>
      <trkpt lat="45.82213" lon="3.32006">
        <ele>321.56433105469</ele>
        <time>2020-05-23T20:07:37.662Z</time>
      </trkpt>
      <trkpt lat="45.82218" lon="3.32024">
        <ele>321.80429077148</ele>
        <time>2020-05-23T20:07:47.945Z</time>
      </trkpt>
      <trkpt lat="45.82228" lon="3.32073">
        <ele>322.49737548828</ele>
        <time>2020-05-23T20:07:58.241Z</time>
      </trkpt>
      <trkpt lat="45.82235" lon="3.32098">
        <ele>323.06170654297</ele>
        <time>2020-05-23T20:08:08.544Z</time>
      </trkpt>
      <trkpt lat="45.82249" lon="3.32143">
        <ele>323.38638305664</ele>
        <time>2020-05-23T20:08:18.859Z</time>
      </trkpt>
      <trkpt lat="45.82255" lon="3.32169">
        <ele>323.50634765625</ele>
        <time>2020-05-23T20:08:29.181Z</time>
      </trkpt>
      <trkpt lat="45.8228" lon="3.32323">
        <ele>320.66220092773</ele>
        <time>2020-05-23T20:08:39.544Z</time>
      </trkpt>
      <trkpt lat="45.82286" lon="3.3237">
        <ele>320.02557373047</ele>
        <time>2020-05-23T20:08:49.919Z</time>
      </trkpt>
      <trkpt lat="45.82297" lon="3.32433">
        <ele>319.66564941406</ele>
        <time>2020-05-23T20:09:00.310Z</time>
      </trkpt>
      <trkpt lat="45.82312" lon="3.32527">
        <ele>318.76104736328</ele>
        <time>2020-05-23T20:09:10.726Z</time>
      </trkpt>
      <trkpt lat="45.8232" lon="3.32584">
        <ele>317.4892578125</ele>
        <time>2020-05-23T20:09:21.157Z</time>
      </trkpt>
      <trkpt lat="45.82331" lon="3.32648">
        <ele>317</ele>
        <time>2020-05-23T20:09:31.604Z</time>
      </trkpt>
      <trkpt lat="45.82341" lon="3.32716">
        <ele>316.57345581055</ele>
        <time>2020-05-23T20:09:42.069Z</time>
      </trkpt>
      <trkpt lat="45.82356" lon="3.328">
        <ele>314.30368041992</ele>
        <time>2020-05-23T20:09:52.556Z</time>
      </trkpt>
      <trkpt lat="45.82366" lon="3.3287">
        <ele>313.27322387695</ele>
        <time>2020-05-23T20:10:03.061Z</time>
      </trkpt>
      <trkpt lat="45.82381" lon="3.32954">
        <ele>313</ele>
        <time>2020-05-23T20:10:13.588Z</time>
      </trkpt>
      <trkpt lat="45.82396" lon="3.33055">
        <ele>312.5061340332</ele>
        <time>2020-05-23T20:10:24.142Z</time>
      </trkpt>
      <trkpt lat="45.824" lon="3.33067">
        <ele>312.36215209961</ele>
        <time>2020-05-23T20:10:34.699Z</time>
      </trkpt>
      <trkpt lat="45.82428" lon="3.33064">
        <ele>312.1</ele>
      </trkpt>
      <trkpt lat="45.82439" lon="3.33063">
        <ele>312.1</ele>
      </trkpt>
      <trkpt lat="45.82449" lon="3.33049">
        <ele>311.9</ele>
      </trkpt>
      <trkpt lat="45.8246" lon="3.33041">
        <ele>311.7</ele>
      </trkpt>
      <trkpt lat="45.82471" lon="3.33024">
        <ele>311.3</ele>
      </trkpt>
      <trkpt lat="45.82484" lon="3.33004">
        <ele>310.6</ele>
      </trkpt>
      <trkpt lat="45.82503" lon="3.32977">
        <ele>310.6</ele>
      </trkpt>
      <trkpt lat="45.82518" lon="3.32975">
        <ele>311.98355102539</ele>
        <time>2020-05-23T20:11:38.228Z</time>
      </trkpt>
      <trkpt lat="45.82528" lon="3.32983">
        <ele>311.95956420898</ele>
        <time>2020-05-23T20:11:48.843Z</time>
      </trkpt>
      <trkpt lat="45.82556" lon="3.33013">
        <ele>311.6</ele>
      </trkpt>
      <trkpt lat="45.82563" lon="3.33033">
        <ele>312.41067504883</ele>
        <time>2020-05-23T20:11:59.476Z</time>
      </trkpt>
      <trkpt lat="45.82564" lon="3.33071">
        <ele>312.6</ele>
      </trkpt>
      <trkpt lat="45.8257" lon="3.33107">
        <ele>313.9</ele>
      </trkpt>
      <trkpt lat="45.82571" lon="3.3311">
        <ele>314.1</ele>
      </trkpt>
      <trkpt lat="45.82616" lon="3.33129">
        <ele>316</ele>
      </trkpt>
      <trkpt lat="45.82635" lon="3.33159">
        <ele>317.9</ele>
      </trkpt>
      <trkpt lat="45.82662" lon="3.33175">
        <ele>319</ele>
      </trkpt>
      <trkpt lat="45.82687" lon="3.33186">
        <ele>319.6</ele>
      </trkpt>
      <trkpt lat="45.82701" lon="3.33239">
        <ele>320</ele>
      </trkpt>
    </trkseg>
  </trk>
</gpx>